<?xml version="1.0" encoding="UTF-8" standalone="no" ?>
<gpx xmlns="http://www.topografix.com/GPX/1/1" xmlns:xsi="http://www.w3.org/2001/XMLSchema-instance" xsi:schemaLocation="http://www.topografix.com/GPX/1/1 http://www.topografix.com/GPX/1/1/gpx.xsd" version="1.1" creator="VisuGPX - https://www.visugpx.com">
  <metadata>
    <name>Aiguille des Calvaires (74 Aravis)</name>
    <desc><![CDATA[Départ du Crêt du Merle (1500 m)
Photos et commentaires sur : www.photosrandos.fr

]]></desc>
  </metadata>
  <trk>
    <name><![CDATA[Aiguille des Calvaires]]></name>
    <cmt><![CDATA[6 févr. 2021 à 09:18:05]]></cmt>
    <trkseg>
      <trkpt lat="45.8953" lon="6.44117">
        <ele>1502</ele>
        <time>2021-02-06T08:24:18Z</time>
      </trkpt>
      <trkpt lat="45.89543" lon="6.44124">
        <ele>1503</ele>
        <time>2021-02-06T08:24:39Z</time>
      </trkpt>
      <trkpt lat="45.89554" lon="6.44129">
        <ele>1506</ele>
        <time>2021-02-06T08:25:13Z</time>
      </trkpt>
      <trkpt lat="45.89562" lon="6.44134">
        <ele>1504</ele>
        <time>2021-02-06T08:25:20Z</time>
      </trkpt>
      <trkpt lat="45.89574" lon="6.4414">
        <ele>1503</ele>
        <time>2021-02-06T08:25:42Z</time>
      </trkpt>
      <trkpt lat="45.89584" lon="6.44146">
        <ele>1505</ele>
        <time>2021-02-06T08:25:58Z</time>
      </trkpt>
      <trkpt lat="45.89592" lon="6.44153">
        <ele>1508</ele>
        <time>2021-02-06T08:26:16Z</time>
      </trkpt>
      <trkpt lat="45.89602" lon="6.44184">
        <ele>1512</ele>
        <time>2021-02-06T08:26:47Z</time>
      </trkpt>
      <trkpt lat="45.89606" lon="6.44196">
        <ele>1514</ele>
        <time>2021-02-06T08:27:06Z</time>
      </trkpt>
      <trkpt lat="45.89604" lon="6.44208">
        <ele>1518</ele>
        <time>2021-02-06T08:27:27Z</time>
      </trkpt>
      <trkpt lat="45.89601" lon="6.44227">
        <ele>1522</ele>
        <time>2021-02-06T08:27:47Z</time>
      </trkpt>
      <trkpt lat="45.89597" lon="6.44237">
        <ele>1524</ele>
        <time>2021-02-06T08:27:57Z</time>
      </trkpt>
      <trkpt lat="45.89583" lon="6.44253">
        <ele>1533</ele>
        <time>2021-02-06T08:28:42Z</time>
      </trkpt>
      <trkpt lat="45.89575" lon="6.44263">
        <ele>1533</ele>
        <time>2021-02-06T08:28:52Z</time>
      </trkpt>
      <trkpt lat="45.89567" lon="6.44268">
        <ele>1534</ele>
        <time>2021-02-06T08:29:07Z</time>
      </trkpt>
      <trkpt lat="45.8956" lon="6.44278">
        <ele>1537</ele>
        <time>2021-02-06T08:29:27Z</time>
      </trkpt>
      <trkpt lat="45.8955" lon="6.44293">
        <ele>1544</ele>
        <time>2021-02-06T08:30:01Z</time>
      </trkpt>
      <trkpt lat="45.89541" lon="6.44304">
        <ele>1545</ele>
        <time>2021-02-06T08:30:14Z</time>
      </trkpt>
      <trkpt lat="45.89533" lon="6.44323">
        <ele>1548</ele>
        <time>2021-02-06T08:30:48Z</time>
      </trkpt>
      <trkpt lat="45.89519" lon="6.44338">
        <ele>1547</ele>
        <time>2021-02-06T08:31:37Z</time>
      </trkpt>
      <trkpt lat="45.89509" lon="6.4434">
        <ele>1552</ele>
        <time>2021-02-06T08:31:45Z</time>
      </trkpt>
      <trkpt lat="45.89496" lon="6.44339">
        <ele>1548</ele>
        <time>2021-02-06T08:31:59Z</time>
      </trkpt>
      <trkpt lat="45.89489" lon="6.44347">
        <ele>1550</ele>
        <time>2021-02-06T08:32:16Z</time>
      </trkpt>
      <trkpt lat="45.89476" lon="6.44365">
        <ele>1548</ele>
        <time>2021-02-06T08:32:44Z</time>
      </trkpt>
      <trkpt lat="45.89468" lon="6.44373">
        <ele>1555</ele>
        <time>2021-02-06T08:32:59Z</time>
      </trkpt>
      <trkpt lat="45.89456" lon="6.44389">
        <ele>1556</ele>
        <time>2021-02-06T08:33:20Z</time>
      </trkpt>
      <trkpt lat="45.89449" lon="6.444">
        <ele>1559</ele>
        <time>2021-02-06T08:33:35Z</time>
      </trkpt>
      <trkpt lat="45.89439" lon="6.44404">
        <ele>1561</ele>
        <time>2021-02-06T08:34:09Z</time>
      </trkpt>
      <trkpt lat="45.89432" lon="6.44413">
        <ele>1563</ele>
        <time>2021-02-06T08:34:16Z</time>
      </trkpt>
      <trkpt lat="45.89422" lon="6.4442">
        <ele>1563</ele>
        <time>2021-02-06T08:34:33Z</time>
      </trkpt>
      <trkpt lat="45.89418" lon="6.44432">
        <ele>1564</ele>
        <time>2021-02-06T08:34:42Z</time>
      </trkpt>
      <trkpt lat="45.89412" lon="6.44441">
        <ele>1565</ele>
        <time>2021-02-06T08:34:59Z</time>
      </trkpt>
      <trkpt lat="45.89405" lon="6.44452">
        <ele>1572</ele>
        <time>2021-02-06T08:35:21Z</time>
      </trkpt>
      <trkpt lat="45.89395" lon="6.44465">
        <ele>1576</ele>
        <time>2021-02-06T08:35:45Z</time>
      </trkpt>
      <trkpt lat="45.89385" lon="6.44475">
        <ele>1578</ele>
        <time>2021-02-06T08:36:05Z</time>
      </trkpt>
      <trkpt lat="45.89387" lon="6.4449">
        <ele>1582</ele>
        <time>2021-02-06T08:36:23Z</time>
      </trkpt>
      <trkpt lat="45.89378" lon="6.44496">
        <ele>1584</ele>
        <time>2021-02-06T08:36:45Z</time>
      </trkpt>
      <trkpt lat="45.8937" lon="6.44502">
        <ele>1585</ele>
        <time>2021-02-06T08:37:10Z</time>
      </trkpt>
      <trkpt lat="45.89359" lon="6.44517">
        <ele>1587</ele>
        <time>2021-02-06T08:37:59Z</time>
      </trkpt>
      <trkpt lat="45.89347" lon="6.4454">
        <ele>1593</ele>
        <time>2021-02-06T08:38:13Z</time>
      </trkpt>
      <trkpt lat="45.89338" lon="6.44547">
        <ele>1593</ele>
        <time>2021-02-06T08:38:30Z</time>
      </trkpt>
      <trkpt lat="45.89329" lon="6.44543">
        <ele>1596</ele>
        <time>2021-02-06T08:39:29Z</time>
      </trkpt>
      <trkpt lat="45.89319" lon="6.44543">
        <ele>1598</ele>
        <time>2021-02-06T08:39:38Z</time>
      </trkpt>
      <trkpt lat="45.89308" lon="6.44529">
        <ele>1595</ele>
        <time>2021-02-06T08:39:58Z</time>
      </trkpt>
      <trkpt lat="45.89302" lon="6.44521">
        <ele>1596</ele>
        <time>2021-02-06T08:40:08Z</time>
      </trkpt>
      <trkpt lat="45.89296" lon="6.44531">
        <ele>1604</ele>
        <time>2021-02-06T08:40:45Z</time>
      </trkpt>
      <trkpt lat="45.89294" lon="6.44538">
        <ele>1606</ele>
        <time>2021-02-06T08:44:28Z</time>
      </trkpt>
      <trkpt lat="45.89296" lon="6.44547">
        <ele>1609</ele>
        <time>2021-02-06T08:44:43Z</time>
      </trkpt>
      <trkpt lat="45.89299" lon="6.44552">
        <ele>1610</ele>
        <time>2021-02-06T08:44:53Z</time>
      </trkpt>
      <trkpt lat="45.89301" lon="6.4456">
        <ele>1611</ele>
        <time>2021-02-06T08:44:59Z</time>
      </trkpt>
      <trkpt lat="45.89304" lon="6.44566">
        <ele>1613</ele>
        <time>2021-02-06T08:45:10Z</time>
      </trkpt>
      <trkpt lat="45.89308" lon="6.44593">
        <ele>1617</ele>
        <time>2021-02-06T08:45:43Z</time>
      </trkpt>
      <trkpt lat="45.89309" lon="6.44599">
        <ele>1618</ele>
        <time>2021-02-06T08:45:50Z</time>
      </trkpt>
      <trkpt lat="45.89308" lon="6.44605">
        <ele>1619</ele>
        <time>2021-02-06T08:45:59Z</time>
      </trkpt>
      <trkpt lat="45.89303" lon="6.44602">
        <ele>1622</ele>
        <time>2021-02-06T08:46:14Z</time>
      </trkpt>
      <trkpt lat="45.89298" lon="6.44601">
        <ele>1623</ele>
        <time>2021-02-06T08:46:24Z</time>
      </trkpt>
      <trkpt lat="45.8929" lon="6.44603">
        <ele>1624</ele>
        <time>2021-02-06T08:46:34Z</time>
      </trkpt>
      <trkpt lat="45.89284" lon="6.44605">
        <ele>1624</ele>
        <time>2021-02-06T08:46:44Z</time>
      </trkpt>
      <trkpt lat="45.89277" lon="6.44618">
        <ele>1623</ele>
        <time>2021-02-06T08:47:19Z</time>
      </trkpt>
      <trkpt lat="45.89274" lon="6.44625">
        <ele>1623</ele>
        <time>2021-02-06T08:47:25Z</time>
      </trkpt>
      <trkpt lat="45.8927" lon="6.44629">
        <ele>1623</ele>
        <time>2021-02-06T08:47:30Z</time>
      </trkpt>
      <trkpt lat="45.89266" lon="6.44632">
        <ele>1622</ele>
        <time>2021-02-06T08:47:35Z</time>
      </trkpt>
      <trkpt lat="45.89261" lon="6.44633">
        <ele>1623</ele>
        <time>2021-02-06T08:47:42Z</time>
      </trkpt>
      <trkpt lat="45.89241" lon="6.44632">
        <ele>1625</ele>
        <time>2021-02-06T08:48:09Z</time>
      </trkpt>
      <trkpt lat="45.89222" lon="6.44623">
        <ele>1628</ele>
        <time>2021-02-06T08:48:36Z</time>
      </trkpt>
      <trkpt lat="45.89215" lon="6.44625">
        <ele>1629</ele>
        <time>2021-02-06T08:48:44Z</time>
      </trkpt>
      <trkpt lat="45.89208" lon="6.44618">
        <ele>1630</ele>
        <time>2021-02-06T08:48:54Z</time>
      </trkpt>
      <trkpt lat="45.89203" lon="6.44617">
        <ele>1632</ele>
        <time>2021-02-06T08:49:04Z</time>
      </trkpt>
      <trkpt lat="45.89192" lon="6.44608">
        <ele>1634</ele>
        <time>2021-02-06T08:49:20Z</time>
      </trkpt>
      <trkpt lat="45.89187" lon="6.44607">
        <ele>1634</ele>
        <time>2021-02-06T08:49:27Z</time>
      </trkpt>
      <trkpt lat="45.89181" lon="6.44601">
        <ele>1634</ele>
        <time>2021-02-06T08:49:35Z</time>
      </trkpt>
      <trkpt lat="45.89168" lon="6.4459">
        <ele>1637</ele>
        <time>2021-02-06T08:49:56Z</time>
      </trkpt>
      <trkpt lat="45.89157" lon="6.4458">
        <ele>1639</ele>
        <time>2021-02-06T08:50:15Z</time>
      </trkpt>
      <trkpt lat="45.89152" lon="6.44576">
        <ele>1640</ele>
        <time>2021-02-06T08:50:25Z</time>
      </trkpt>
      <trkpt lat="45.89142" lon="6.44574">
        <ele>1641</ele>
        <time>2021-02-06T08:50:37Z</time>
      </trkpt>
      <trkpt lat="45.89137" lon="6.4457">
        <ele>1642</ele>
        <time>2021-02-06T08:50:47Z</time>
      </trkpt>
      <trkpt lat="45.89124" lon="6.44563">
        <ele>1643</ele>
        <time>2021-02-06T08:51:07Z</time>
      </trkpt>
      <trkpt lat="45.89113" lon="6.44555">
        <ele>1645</ele>
        <time>2021-02-06T08:51:27Z</time>
      </trkpt>
      <trkpt lat="45.89109" lon="6.44551">
        <ele>1646</ele>
        <time>2021-02-06T08:51:37Z</time>
      </trkpt>
      <trkpt lat="45.89103" lon="6.44549">
        <ele>1647</ele>
        <time>2021-02-06T08:51:47Z</time>
      </trkpt>
      <trkpt lat="45.89099" lon="6.44546">
        <ele>1648</ele>
        <time>2021-02-06T08:51:52Z</time>
      </trkpt>
      <trkpt lat="45.8909" lon="6.44543">
        <ele>1649</ele>
        <time>2021-02-06T08:52:04Z</time>
      </trkpt>
      <trkpt lat="45.89085" lon="6.44543">
        <ele>1649</ele>
        <time>2021-02-06T08:52:09Z</time>
      </trkpt>
      <trkpt lat="45.8908" lon="6.44542">
        <ele>1649</ele>
        <time>2021-02-06T08:52:21Z</time>
      </trkpt>
      <trkpt lat="45.89072" lon="6.44542">
        <ele>1650</ele>
        <time>2021-02-06T08:52:31Z</time>
      </trkpt>
      <trkpt lat="45.89059" lon="6.44546">
        <ele>1652</ele>
        <time>2021-02-06T08:52:51Z</time>
      </trkpt>
      <trkpt lat="45.89037" lon="6.44536">
        <ele>1660</ele>
        <time>2021-02-06T08:53:26Z</time>
      </trkpt>
      <trkpt lat="45.89025" lon="6.44534">
        <ele>1662</ele>
        <time>2021-02-06T08:53:41Z</time>
      </trkpt>
      <trkpt lat="45.89021" lon="6.44531">
        <ele>1663</ele>
        <time>2021-02-06T08:53:49Z</time>
      </trkpt>
      <trkpt lat="45.89005" lon="6.44513">
        <ele>1664</ele>
        <time>2021-02-06T08:54:19Z</time>
      </trkpt>
      <trkpt lat="45.88996" lon="6.44504">
        <ele>1665</ele>
        <time>2021-02-06T08:54:35Z</time>
      </trkpt>
      <trkpt lat="45.8899" lon="6.445">
        <ele>1666</ele>
        <time>2021-02-06T08:54:45Z</time>
      </trkpt>
      <trkpt lat="45.88984" lon="6.44498">
        <ele>1666</ele>
        <time>2021-02-06T08:54:55Z</time>
      </trkpt>
      <trkpt lat="45.88979" lon="6.44496">
        <ele>1666</ele>
        <time>2021-02-06T08:55:22Z</time>
      </trkpt>
      <trkpt lat="45.88973" lon="6.44499">
        <ele>1667</ele>
        <time>2021-02-06T08:55:44Z</time>
      </trkpt>
      <trkpt lat="45.88969" lon="6.44507">
        <ele>1669</ele>
        <time>2021-02-06T08:56:29Z</time>
      </trkpt>
      <trkpt lat="45.88967" lon="6.44513">
        <ele>1667</ele>
        <time>2021-02-06T08:56:34Z</time>
      </trkpt>
      <trkpt lat="45.88964" lon="6.44519">
        <ele>1667</ele>
        <time>2021-02-06T08:56:39Z</time>
      </trkpt>
      <trkpt lat="45.88962" lon="6.44526">
        <ele>1667</ele>
        <time>2021-02-06T08:56:43Z</time>
      </trkpt>
      <trkpt lat="45.88957" lon="6.44534">
        <ele>1668</ele>
        <time>2021-02-06T08:56:52Z</time>
      </trkpt>
      <trkpt lat="45.88953" lon="6.44542">
        <ele>1668</ele>
        <time>2021-02-06T08:57:00Z</time>
      </trkpt>
      <trkpt lat="45.88948" lon="6.44547">
        <ele>1669</ele>
        <time>2021-02-06T08:57:06Z</time>
      </trkpt>
      <trkpt lat="45.88945" lon="6.44556">
        <ele>1670</ele>
        <time>2021-02-06T08:57:13Z</time>
      </trkpt>
      <trkpt lat="45.88937" lon="6.44564">
        <ele>1672</ele>
        <time>2021-02-06T08:57:26Z</time>
      </trkpt>
      <trkpt lat="45.88932" lon="6.44573">
        <ele>1674</ele>
        <time>2021-02-06T08:57:36Z</time>
      </trkpt>
      <trkpt lat="45.88928" lon="6.44578">
        <ele>1675</ele>
        <time>2021-02-06T08:57:41Z</time>
      </trkpt>
      <trkpt lat="45.88924" lon="6.44582">
        <ele>1676</ele>
        <time>2021-02-06T08:57:46Z</time>
      </trkpt>
      <trkpt lat="45.88921" lon="6.44588">
        <ele>1677</ele>
        <time>2021-02-06T08:57:53Z</time>
      </trkpt>
      <trkpt lat="45.88917" lon="6.44594">
        <ele>1678</ele>
        <time>2021-02-06T08:58:03Z</time>
      </trkpt>
      <trkpt lat="45.88916" lon="6.44601">
        <ele>1679</ele>
        <time>2021-02-06T08:58:13Z</time>
      </trkpt>
      <trkpt lat="45.8891" lon="6.4461">
        <ele>1682</ele>
        <time>2021-02-06T08:58:23Z</time>
      </trkpt>
      <trkpt lat="45.88906" lon="6.44616">
        <ele>1683</ele>
        <time>2021-02-06T08:58:33Z</time>
      </trkpt>
      <trkpt lat="45.88907" lon="6.44624">
        <ele>1683</ele>
        <time>2021-02-06T08:58:38Z</time>
      </trkpt>
      <trkpt lat="45.88913" lon="6.44627">
        <ele>1684</ele>
        <time>2021-02-06T08:58:46Z</time>
      </trkpt>
      <trkpt lat="45.8892" lon="6.44621">
        <ele>1685</ele>
        <time>2021-02-06T08:58:56Z</time>
      </trkpt>
      <trkpt lat="45.8893" lon="6.44617">
        <ele>1686</ele>
        <time>2021-02-06T08:59:10Z</time>
      </trkpt>
      <trkpt lat="45.8894" lon="6.44612">
        <ele>1687</ele>
        <time>2021-02-06T08:59:22Z</time>
      </trkpt>
      <trkpt lat="45.88944" lon="6.44607">
        <ele>1688</ele>
        <time>2021-02-06T08:59:32Z</time>
      </trkpt>
      <trkpt lat="45.88968" lon="6.44604">
        <ele>1694</ele>
        <time>2021-02-06T09:00:05Z</time>
      </trkpt>
      <trkpt lat="45.88974" lon="6.44603">
        <ele>1694</ele>
        <time>2021-02-06T09:00:20Z</time>
      </trkpt>
      <trkpt lat="45.88979" lon="6.44604">
        <ele>1695</ele>
        <time>2021-02-06T09:00:30Z</time>
      </trkpt>
      <trkpt lat="45.88992" lon="6.44615">
        <ele>1699</ele>
        <time>2021-02-06T09:01:00Z</time>
      </trkpt>
      <trkpt lat="45.88998" lon="6.44619">
        <ele>1701</ele>
        <time>2021-02-06T09:01:10Z</time>
      </trkpt>
      <trkpt lat="45.88996" lon="6.44625">
        <ele>1703</ele>
        <time>2021-02-06T09:01:36Z</time>
      </trkpt>
      <trkpt lat="45.88987" lon="6.44629">
        <ele>1703</ele>
        <time>2021-02-06T09:01:48Z</time>
      </trkpt>
      <trkpt lat="45.8897" lon="6.44642">
        <ele>1707</ele>
        <time>2021-02-06T09:02:18Z</time>
      </trkpt>
      <trkpt lat="45.88958" lon="6.44654">
        <ele>1710</ele>
        <time>2021-02-06T09:02:38Z</time>
      </trkpt>
      <trkpt lat="45.88954" lon="6.4466">
        <ele>1711</ele>
        <time>2021-02-06T09:02:48Z</time>
      </trkpt>
      <trkpt lat="45.88951" lon="6.44668">
        <ele>1713</ele>
        <time>2021-02-06T09:02:58Z</time>
      </trkpt>
      <trkpt lat="45.88946" lon="6.44675">
        <ele>1714</ele>
        <time>2021-02-06T09:03:08Z</time>
      </trkpt>
      <trkpt lat="45.88937" lon="6.44699">
        <ele>1716</ele>
        <time>2021-02-06T09:03:38Z</time>
      </trkpt>
      <trkpt lat="45.88932" lon="6.44717">
        <ele>1717</ele>
        <time>2021-02-06T09:03:59Z</time>
      </trkpt>
      <trkpt lat="45.88936" lon="6.44735">
        <ele>1719</ele>
        <time>2021-02-06T09:04:14Z</time>
      </trkpt>
      <trkpt lat="45.88938" lon="6.44746">
        <ele>1721</ele>
        <time>2021-02-06T09:04:26Z</time>
      </trkpt>
      <trkpt lat="45.88938" lon="6.44756">
        <ele>1722</ele>
        <time>2021-02-06T09:04:36Z</time>
      </trkpt>
      <trkpt lat="45.88939" lon="6.44763">
        <ele>1723</ele>
        <time>2021-02-06T09:04:46Z</time>
      </trkpt>
      <trkpt lat="45.88931" lon="6.44794">
        <ele>1726</ele>
        <time>2021-02-06T09:05:22Z</time>
      </trkpt>
      <trkpt lat="45.88927" lon="6.44803">
        <ele>1726</ele>
        <time>2021-02-06T09:05:32Z</time>
      </trkpt>
      <trkpt lat="45.88926" lon="6.4481">
        <ele>1727</ele>
        <time>2021-02-06T09:05:42Z</time>
      </trkpt>
      <trkpt lat="45.88923" lon="6.44816">
        <ele>1728</ele>
        <time>2021-02-06T09:05:52Z</time>
      </trkpt>
      <trkpt lat="45.88921" lon="6.44824">
        <ele>1730</ele>
        <time>2021-02-06T09:06:02Z</time>
      </trkpt>
      <trkpt lat="45.88913" lon="6.44831">
        <ele>1731</ele>
        <time>2021-02-06T09:06:12Z</time>
      </trkpt>
      <trkpt lat="45.88911" lon="6.44836">
        <ele>1731</ele>
        <time>2021-02-06T09:06:17Z</time>
      </trkpt>
      <trkpt lat="45.8891" lon="6.44845">
        <ele>1732</ele>
        <time>2021-02-06T09:06:24Z</time>
      </trkpt>
      <trkpt lat="45.88907" lon="6.44854">
        <ele>1733</ele>
        <time>2021-02-06T09:06:36Z</time>
      </trkpt>
      <trkpt lat="45.88904" lon="6.44874">
        <ele>1735</ele>
        <time>2021-02-06T09:06:56Z</time>
      </trkpt>
      <trkpt lat="45.88897" lon="6.449">
        <ele>1740</ele>
        <time>2021-02-06T09:07:26Z</time>
      </trkpt>
      <trkpt lat="45.88895" lon="6.44911">
        <ele>1742</ele>
        <time>2021-02-06T09:07:36Z</time>
      </trkpt>
      <trkpt lat="45.88892" lon="6.44918">
        <ele>1743</ele>
        <time>2021-02-06T09:07:42Z</time>
      </trkpt>
      <trkpt lat="45.88888" lon="6.44927">
        <ele>1743</ele>
        <time>2021-02-06T09:07:51Z</time>
      </trkpt>
      <trkpt lat="45.88885" lon="6.44935">
        <ele>1744</ele>
        <time>2021-02-06T09:08:01Z</time>
      </trkpt>
      <trkpt lat="45.88882" lon="6.44957">
        <ele>1745</ele>
        <time>2021-02-06T09:08:22Z</time>
      </trkpt>
      <trkpt lat="45.88884" lon="6.44963">
        <ele>1745</ele>
        <time>2021-02-06T09:08:27Z</time>
      </trkpt>
      <trkpt lat="45.88883" lon="6.44973">
        <ele>1747</ele>
        <time>2021-02-06T09:08:38Z</time>
      </trkpt>
      <trkpt lat="45.8888" lon="6.4498">
        <ele>1747</ele>
        <time>2021-02-06T09:08:44Z</time>
      </trkpt>
      <trkpt lat="45.88879" lon="6.44994">
        <ele>1749</ele>
        <time>2021-02-06T09:09:01Z</time>
      </trkpt>
      <trkpt lat="45.88878" lon="6.45001">
        <ele>1750</ele>
        <time>2021-02-06T09:09:07Z</time>
      </trkpt>
      <trkpt lat="45.88878" lon="6.45008">
        <ele>1749</ele>
        <time>2021-02-06T09:09:12Z</time>
      </trkpt>
      <trkpt lat="45.8888" lon="6.45016">
        <ele>1749</ele>
        <time>2021-02-06T09:09:19Z</time>
      </trkpt>
      <trkpt lat="45.88882" lon="6.45025">
        <ele>1750</ele>
        <time>2021-02-06T09:09:29Z</time>
      </trkpt>
      <trkpt lat="45.88887" lon="6.45041">
        <ele>1753</ele>
        <time>2021-02-06T09:09:49Z</time>
      </trkpt>
      <trkpt lat="45.88887" lon="6.4505">
        <ele>1755</ele>
        <time>2021-02-06T09:09:59Z</time>
      </trkpt>
      <trkpt lat="45.88886" lon="6.45058">
        <ele>1755</ele>
        <time>2021-02-06T09:10:04Z</time>
      </trkpt>
      <trkpt lat="45.88887" lon="6.45068">
        <ele>1755</ele>
        <time>2021-02-06T09:10:16Z</time>
      </trkpt>
      <trkpt lat="45.88888" lon="6.45083">
        <ele>1758</ele>
        <time>2021-02-06T09:10:36Z</time>
      </trkpt>
      <trkpt lat="45.88892" lon="6.45091">
        <ele>1761</ele>
        <time>2021-02-06T09:10:46Z</time>
      </trkpt>
      <trkpt lat="45.88895" lon="6.45098">
        <ele>1761</ele>
        <time>2021-02-06T09:10:56Z</time>
      </trkpt>
      <trkpt lat="45.88892" lon="6.45107">
        <ele>1761</ele>
        <time>2021-02-06T09:11:11Z</time>
      </trkpt>
      <trkpt lat="45.88897" lon="6.45121">
        <ele>1761</ele>
        <time>2021-02-06T09:14:29Z</time>
      </trkpt>
      <trkpt lat="45.88901" lon="6.45135">
        <ele>1762</ele>
        <time>2021-02-06T09:17:02Z</time>
      </trkpt>
      <trkpt lat="45.88908" lon="6.45148">
        <ele>1763</ele>
        <time>2021-02-06T09:17:16Z</time>
      </trkpt>
      <trkpt lat="45.88916" lon="6.45166">
        <ele>1768</ele>
        <time>2021-02-06T09:18:00Z</time>
      </trkpt>
      <trkpt lat="45.88914" lon="6.4518">
        <ele>1769</ele>
        <time>2021-02-06T09:18:07Z</time>
      </trkpt>
      <trkpt lat="45.88919" lon="6.45199">
        <ele>1770</ele>
        <time>2021-02-06T09:18:23Z</time>
      </trkpt>
      <trkpt lat="45.88922" lon="6.45212">
        <ele>1772</ele>
        <time>2021-02-06T09:18:37Z</time>
      </trkpt>
      <trkpt lat="45.88921" lon="6.45227">
        <ele>1774</ele>
        <time>2021-02-06T09:18:51Z</time>
      </trkpt>
      <trkpt lat="45.88924" lon="6.45247">
        <ele>1777</ele>
        <time>2021-02-06T09:19:11Z</time>
      </trkpt>
      <trkpt lat="45.88936" lon="6.4527">
        <ele>1780</ele>
        <time>2021-02-06T09:19:49Z</time>
      </trkpt>
      <trkpt lat="45.88942" lon="6.45286">
        <ele>1787</ele>
        <time>2021-02-06T09:20:31Z</time>
      </trkpt>
      <trkpt lat="45.88947" lon="6.45297">
        <ele>1788</ele>
        <time>2021-02-06T09:20:39Z</time>
      </trkpt>
      <trkpt lat="45.88951" lon="6.45309">
        <ele>1790</ele>
        <time>2021-02-06T09:20:56Z</time>
      </trkpt>
      <trkpt lat="45.8895" lon="6.45324">
        <ele>1793</ele>
        <time>2021-02-06T09:21:16Z</time>
      </trkpt>
      <trkpt lat="45.88957" lon="6.45336">
        <ele>1798</ele>
        <time>2021-02-06T09:21:50Z</time>
      </trkpt>
      <trkpt lat="45.88962" lon="6.45353">
        <ele>1800</ele>
        <time>2021-02-06T09:22:06Z</time>
      </trkpt>
      <trkpt lat="45.88959" lon="6.45368">
        <ele>1803</ele>
        <time>2021-02-06T09:22:21Z</time>
      </trkpt>
      <trkpt lat="45.88965" lon="6.45381">
        <ele>1804</ele>
        <time>2021-02-06T09:22:36Z</time>
      </trkpt>
      <trkpt lat="45.88967" lon="6.45401">
        <ele>1808</ele>
        <time>2021-02-06T09:23:04Z</time>
      </trkpt>
      <trkpt lat="45.88973" lon="6.45413">
        <ele>1811</ele>
        <time>2021-02-06T09:23:19Z</time>
      </trkpt>
      <trkpt lat="45.88976" lon="6.45431">
        <ele>1816</ele>
        <time>2021-02-06T09:23:51Z</time>
      </trkpt>
      <trkpt lat="45.88981" lon="6.45445">
        <ele>1818</ele>
        <time>2021-02-06T09:24:08Z</time>
      </trkpt>
      <trkpt lat="45.88989" lon="6.45457">
        <ele>1821</ele>
        <time>2021-02-06T09:24:29Z</time>
      </trkpt>
      <trkpt lat="45.89" lon="6.45467">
        <ele>1823</ele>
        <time>2021-02-06T09:24:47Z</time>
      </trkpt>
      <trkpt lat="45.88995" lon="6.4548">
        <ele>1824</ele>
        <time>2021-02-06T09:24:54Z</time>
      </trkpt>
      <trkpt lat="45.89001" lon="6.45498">
        <ele>1829</ele>
        <time>2021-02-06T09:25:46Z</time>
      </trkpt>
      <trkpt lat="45.89007" lon="6.45511">
        <ele>1831</ele>
        <time>2021-02-06T09:26:00Z</time>
      </trkpt>
      <trkpt lat="45.89012" lon="6.45522">
        <ele>1832</ele>
        <time>2021-02-06T09:26:08Z</time>
      </trkpt>
      <trkpt lat="45.89012" lon="6.45538">
        <ele>1833</ele>
        <time>2021-02-06T09:26:23Z</time>
      </trkpt>
      <trkpt lat="45.89015" lon="6.45549">
        <ele>1834</ele>
        <time>2021-02-06T09:26:38Z</time>
      </trkpt>
      <trkpt lat="45.89015" lon="6.45565">
        <ele>1837</ele>
        <time>2021-02-06T09:27:00Z</time>
      </trkpt>
      <trkpt lat="45.89011" lon="6.45582">
        <ele>1839</ele>
        <time>2021-02-06T09:27:19Z</time>
      </trkpt>
      <trkpt lat="45.89015" lon="6.45596">
        <ele>1841</ele>
        <time>2021-02-06T09:27:31Z</time>
      </trkpt>
      <trkpt lat="45.89019" lon="6.4561">
        <ele>1844</ele>
        <time>2021-02-06T09:27:54Z</time>
      </trkpt>
      <trkpt lat="45.89015" lon="6.45621">
        <ele>1846</ele>
        <time>2021-02-06T09:28:13Z</time>
      </trkpt>
      <trkpt lat="45.89015" lon="6.45635">
        <ele>1849</ele>
        <time>2021-02-06T09:28:30Z</time>
      </trkpt>
      <trkpt lat="45.89024" lon="6.45654">
        <ele>1854</ele>
        <time>2021-02-06T09:28:55Z</time>
      </trkpt>
      <trkpt lat="45.89024" lon="6.4567">
        <ele>1856</ele>
        <time>2021-02-06T09:29:17Z</time>
      </trkpt>
      <trkpt lat="45.89023" lon="6.45691">
        <ele>1860</ele>
        <time>2021-02-06T09:29:42Z</time>
      </trkpt>
      <trkpt lat="45.89033" lon="6.4572">
        <ele>1867</ele>
        <time>2021-02-06T09:30:23Z</time>
      </trkpt>
      <trkpt lat="45.89037" lon="6.45736">
        <ele>1871</ele>
        <time>2021-02-06T09:30:44Z</time>
      </trkpt>
      <trkpt lat="45.89039" lon="6.4576">
        <ele>1881</ele>
        <time>2021-02-06T09:31:47Z</time>
      </trkpt>
      <trkpt lat="45.89045" lon="6.45776">
        <ele>1883</ele>
        <time>2021-02-06T09:32:00Z</time>
      </trkpt>
      <trkpt lat="45.89051" lon="6.45787">
        <ele>1884</ele>
        <time>2021-02-06T09:32:13Z</time>
      </trkpt>
      <trkpt lat="45.89057" lon="6.45803">
        <ele>1890</ele>
        <time>2021-02-06T09:32:35Z</time>
      </trkpt>
      <trkpt lat="45.89062" lon="6.45819">
        <ele>1898</ele>
        <time>2021-02-06T09:32:59Z</time>
      </trkpt>
      <trkpt lat="45.89063" lon="6.45835">
        <ele>1900</ele>
        <time>2021-02-06T09:33:30Z</time>
      </trkpt>
      <trkpt lat="45.89064" lon="6.45847">
        <ele>1902</ele>
        <time>2021-02-06T09:33:35Z</time>
      </trkpt>
      <trkpt lat="45.89069" lon="6.45872">
        <ele>1906</ele>
        <time>2021-02-06T09:34:00Z</time>
      </trkpt>
      <trkpt lat="45.89067" lon="6.45885">
        <ele>1907</ele>
        <time>2021-02-06T09:34:10Z</time>
      </trkpt>
      <trkpt lat="45.89073" lon="6.45896">
        <ele>1911</ele>
        <time>2021-02-06T09:34:22Z</time>
      </trkpt>
      <trkpt lat="45.89074" lon="6.45902">
        <ele>1909</ele>
        <time>2021-02-06T09:36:39Z</time>
      </trkpt>
      <trkpt lat="45.89069" lon="6.45913">
        <ele>1911</ele>
        <time>2021-02-06T09:38:21Z</time>
      </trkpt>
      <trkpt lat="45.89066" lon="6.45928">
        <ele>1911</ele>
        <time>2021-02-06T09:38:38Z</time>
      </trkpt>
      <trkpt lat="45.8906" lon="6.45941">
        <ele>1912</ele>
        <time>2021-02-06T09:38:53Z</time>
      </trkpt>
      <trkpt lat="45.89058" lon="6.45958">
        <ele>1914</ele>
        <time>2021-02-06T09:39:18Z</time>
      </trkpt>
      <trkpt lat="45.89053" lon="6.4598">
        <ele>1914</ele>
        <time>2021-02-06T09:39:53Z</time>
      </trkpt>
      <trkpt lat="45.89048" lon="6.45994">
        <ele>1917</ele>
        <time>2021-02-06T09:40:17Z</time>
      </trkpt>
      <trkpt lat="45.89045" lon="6.46007">
        <ele>1922</ele>
        <time>2021-02-06T09:40:47Z</time>
      </trkpt>
      <trkpt lat="45.89047" lon="6.46022">
        <ele>1924</ele>
        <time>2021-02-06T09:41:01Z</time>
      </trkpt>
      <trkpt lat="45.89043" lon="6.46036">
        <ele>1928</ele>
        <time>2021-02-06T09:41:38Z</time>
      </trkpt>
      <trkpt lat="45.89046" lon="6.46042">
        <ele>1931</ele>
        <time>2021-02-06T09:41:56Z</time>
      </trkpt>
      <trkpt lat="45.89051" lon="6.46045">
        <ele>1932</ele>
        <time>2021-02-06T09:41:59Z</time>
      </trkpt>
      <trkpt lat="45.89058" lon="6.46045">
        <ele>1935</ele>
        <time>2021-02-06T09:42:27Z</time>
      </trkpt>
      <trkpt lat="45.89068" lon="6.46052">
        <ele>1942</ele>
        <time>2021-02-06T09:43:01Z</time>
      </trkpt>
      <trkpt lat="45.8907" lon="6.46068">
        <ele>1946</ele>
        <time>2021-02-06T09:43:36Z</time>
      </trkpt>
      <trkpt lat="45.89067" lon="6.46092">
        <ele>1950</ele>
        <time>2021-02-06T09:44:35Z</time>
      </trkpt>
      <trkpt lat="45.89067" lon="6.46114">
        <ele>1954</ele>
        <time>2021-02-06T09:45:17Z</time>
      </trkpt>
      <trkpt lat="45.89064" lon="6.46132">
        <ele>1957</ele>
        <time>2021-02-06T09:45:34Z</time>
      </trkpt>
      <trkpt lat="45.89051" lon="6.46148">
        <ele>1967</ele>
        <time>2021-02-06T09:46:54Z</time>
      </trkpt>
      <trkpt lat="45.89054" lon="6.46155">
        <ele>1969</ele>
        <time>2021-02-06T09:46:59Z</time>
      </trkpt>
      <trkpt lat="45.89056" lon="6.46163">
        <ele>1968</ele>
        <time>2021-02-06T09:47:09Z</time>
      </trkpt>
      <trkpt lat="45.89058" lon="6.46163">
        <ele>1973</ele>
        <time>2021-02-06T09:47:34Z</time>
      </trkpt>
      <trkpt lat="45.89062" lon="6.46167">
        <ele>1977</ele>
        <time>2021-02-06T09:47:55Z</time>
      </trkpt>
      <trkpt lat="45.89069" lon="6.46169">
        <ele>1978</ele>
        <time>2021-02-06T09:48:05Z</time>
      </trkpt>
      <trkpt lat="45.89074" lon="6.46171">
        <ele>1980</ele>
        <time>2021-02-06T09:48:20Z</time>
      </trkpt>
      <trkpt lat="45.89078" lon="6.46174">
        <ele>1985</ele>
        <time>2021-02-06T09:48:56Z</time>
      </trkpt>
      <trkpt lat="45.8908" lon="6.46184">
        <ele>1983</ele>
        <time>2021-02-06T09:49:04Z</time>
      </trkpt>
      <trkpt lat="45.89079" lon="6.46198">
        <ele>1985</ele>
        <time>2021-02-06T09:49:19Z</time>
      </trkpt>
      <trkpt lat="45.8907" lon="6.46209">
        <ele>1989</ele>
        <time>2021-02-06T09:49:44Z</time>
      </trkpt>
      <trkpt lat="45.89067" lon="6.46225">
        <ele>1995</ele>
        <time>2021-02-06T09:50:37Z</time>
      </trkpt>
      <trkpt lat="45.89065" lon="6.46238">
        <ele>1996</ele>
        <time>2021-02-06T09:50:45Z</time>
      </trkpt>
      <trkpt lat="45.89058" lon="6.46249">
        <ele>1997</ele>
        <time>2021-02-06T09:51:02Z</time>
      </trkpt>
      <trkpt lat="45.89051" lon="6.46257">
        <ele>2000</ele>
        <time>2021-02-06T09:51:37Z</time>
      </trkpt>
      <trkpt lat="45.89047" lon="6.46269">
        <ele>2007</ele>
        <time>2021-02-06T09:52:22Z</time>
      </trkpt>
      <trkpt lat="45.89048" lon="6.46277">
        <ele>2009</ele>
        <time>2021-02-06T09:52:32Z</time>
      </trkpt>
      <trkpt lat="45.89055" lon="6.4628">
        <ele>2012</ele>
        <time>2021-02-06T09:52:52Z</time>
      </trkpt>
      <trkpt lat="45.89056" lon="6.46286">
        <ele>2015</ele>
        <time>2021-02-06T09:53:16Z</time>
      </trkpt>
      <trkpt lat="45.89061" lon="6.46294">
        <ele>2017</ele>
        <time>2021-02-06T09:53:36Z</time>
      </trkpt>
      <trkpt lat="45.89072" lon="6.46301">
        <ele>2019</ele>
        <time>2021-02-06T09:53:52Z</time>
      </trkpt>
      <trkpt lat="45.8908" lon="6.46308">
        <ele>2021</ele>
        <time>2021-02-06T09:54:02Z</time>
      </trkpt>
      <trkpt lat="45.89077" lon="6.46316">
        <ele>2024</ele>
        <time>2021-02-06T09:54:24Z</time>
      </trkpt>
      <trkpt lat="45.89073" lon="6.46333">
        <ele>2026</ele>
        <time>2021-02-06T09:56:21Z</time>
      </trkpt>
      <trkpt lat="45.89065" lon="6.46347">
        <ele>2029</ele>
        <time>2021-02-06T09:56:54Z</time>
      </trkpt>
      <trkpt lat="45.89049" lon="6.46368">
        <ele>2034</ele>
        <time>2021-02-06T09:57:38Z</time>
      </trkpt>
      <trkpt lat="45.89043" lon="6.46381">
        <ele>2036</ele>
        <time>2021-02-06T09:57:54Z</time>
      </trkpt>
      <trkpt lat="45.89049" lon="6.46385">
        <ele>2038</ele>
        <time>2021-02-06T09:58:06Z</time>
      </trkpt>
      <trkpt lat="45.89051" lon="6.46393">
        <ele>2043</ele>
        <time>2021-02-06T09:58:31Z</time>
      </trkpt>
      <trkpt lat="45.89056" lon="6.46403">
        <ele>2049</ele>
        <time>2021-02-06T09:59:11Z</time>
      </trkpt>
      <trkpt lat="45.89059" lon="6.46408">
        <ele>2050</ele>
        <time>2021-02-06T09:59:18Z</time>
      </trkpt>
      <trkpt lat="45.89054" lon="6.46422">
        <ele>2056</ele>
        <time>2021-02-06T10:00:25Z</time>
      </trkpt>
      <trkpt lat="45.89045" lon="6.4643">
        <ele>2057</ele>
        <time>2021-02-06T10:00:34Z</time>
      </trkpt>
      <trkpt lat="45.8904" lon="6.46441">
        <ele>2057</ele>
        <time>2021-02-06T10:00:42Z</time>
      </trkpt>
      <trkpt lat="45.89036" lon="6.46444">
        <ele>2062</ele>
        <time>2021-02-06T10:01:14Z</time>
      </trkpt>
      <trkpt lat="45.89039" lon="6.46451">
        <ele>2063</ele>
        <time>2021-02-06T10:01:25Z</time>
      </trkpt>
      <trkpt lat="45.89044" lon="6.46454">
        <ele>2066</ele>
        <time>2021-02-06T10:01:37Z</time>
      </trkpt>
      <trkpt lat="45.89048" lon="6.46462">
        <ele>2067</ele>
        <time>2021-02-06T10:02:10Z</time>
      </trkpt>
      <trkpt lat="45.89048" lon="6.46471">
        <ele>2067</ele>
        <time>2021-02-06T10:02:31Z</time>
      </trkpt>
      <trkpt lat="45.89062" lon="6.46485">
        <ele>2072</ele>
        <time>2021-02-06T10:02:53Z</time>
      </trkpt>
      <trkpt lat="45.89057" lon="6.46491">
        <ele>2073</ele>
        <time>2021-02-06T10:03:30Z</time>
      </trkpt>
      <trkpt lat="45.89054" lon="6.46485">
        <ele>2074</ele>
        <time>2021-02-06T10:03:45Z</time>
      </trkpt>
      <trkpt lat="45.89051" lon="6.46491">
        <ele>2075</ele>
        <time>2021-02-06T10:03:49Z</time>
      </trkpt>
      <trkpt lat="45.89047" lon="6.46499">
        <ele>2078</ele>
        <time>2021-02-06T10:04:36Z</time>
      </trkpt>
      <trkpt lat="45.89043" lon="6.465">
        <ele>2078</ele>
        <time>2021-02-06T10:04:41Z</time>
      </trkpt>
      <trkpt lat="45.89048" lon="6.46506">
        <ele>2078</ele>
        <time>2021-02-06T10:04:52Z</time>
      </trkpt>
      <trkpt lat="45.89052" lon="6.46513">
        <ele>2081</ele>
        <time>2021-02-06T10:05:22Z</time>
      </trkpt>
      <trkpt lat="45.89055" lon="6.46518">
        <ele>2081</ele>
        <time>2021-02-06T10:06:32Z</time>
      </trkpt>
      <trkpt lat="45.89069" lon="6.4653">
        <ele>2088</ele>
        <time>2021-02-06T10:07:10Z</time>
      </trkpt>
      <trkpt lat="45.89065" lon="6.46529">
        <ele>2089</ele>
        <time>2021-02-06T10:07:18Z</time>
      </trkpt>
      <trkpt lat="45.89051" lon="6.46538">
        <ele>2095</ele>
        <time>2021-02-06T10:08:17Z</time>
      </trkpt>
      <trkpt lat="45.8904" lon="6.46545">
        <ele>2095</ele>
        <time>2021-02-06T10:08:46Z</time>
      </trkpt>
      <trkpt lat="45.89031" lon="6.46551">
        <ele>2097</ele>
        <time>2021-02-06T10:09:07Z</time>
      </trkpt>
      <trkpt lat="45.89042" lon="6.46563">
        <ele>2102</ele>
        <time>2021-02-06T10:09:54Z</time>
      </trkpt>
      <trkpt lat="45.89038" lon="6.46569">
        <ele>2103</ele>
        <time>2021-02-06T10:09:59Z</time>
      </trkpt>
      <trkpt lat="45.8904" lon="6.46579">
        <ele>2106</ele>
        <time>2021-02-06T10:10:27Z</time>
      </trkpt>
      <trkpt lat="45.89046" lon="6.46582">
        <ele>2108</ele>
        <time>2021-02-06T10:10:52Z</time>
      </trkpt>
      <trkpt lat="45.89041" lon="6.46586">
        <ele>2109</ele>
        <time>2021-02-06T10:11:22Z</time>
      </trkpt>
      <trkpt lat="45.89034" lon="6.46588">
        <ele>2110</ele>
        <time>2021-02-06T10:11:37Z</time>
      </trkpt>
      <trkpt lat="45.89029" lon="6.46592">
        <ele>2113</ele>
        <time>2021-02-06T10:11:47Z</time>
      </trkpt>
      <trkpt lat="45.89038" lon="6.46601">
        <ele>2114</ele>
        <time>2021-02-06T10:12:03Z</time>
      </trkpt>
      <trkpt lat="45.89044" lon="6.46607">
        <ele>2115</ele>
        <time>2021-02-06T10:12:15Z</time>
      </trkpt>
      <trkpt lat="45.8904" lon="6.46612">
        <ele>2117</ele>
        <time>2021-02-06T10:12:40Z</time>
      </trkpt>
      <trkpt lat="45.89044" lon="6.46617">
        <ele>2117</ele>
        <time>2021-02-06T10:12:45Z</time>
      </trkpt>
      <trkpt lat="45.89048" lon="6.46619">
        <ele>2118</ele>
        <time>2021-02-06T10:12:48Z</time>
      </trkpt>
      <trkpt lat="45.89053" lon="6.46625">
        <ele>2119</ele>
        <time>2021-02-06T10:12:58Z</time>
      </trkpt>
      <trkpt lat="45.89047" lon="6.46626">
        <ele>2121</ele>
        <time>2021-02-06T10:13:28Z</time>
      </trkpt>
      <trkpt lat="45.89038" lon="6.4663">
        <ele>2127</ele>
        <time>2021-02-06T10:14:13Z</time>
      </trkpt>
      <trkpt lat="45.89031" lon="6.46638">
        <ele>2129</ele>
        <time>2021-02-06T10:14:33Z</time>
      </trkpt>
      <trkpt lat="45.89029" lon="6.46644">
        <ele>2131</ele>
        <time>2021-02-06T10:14:44Z</time>
      </trkpt>
      <trkpt lat="45.89031" lon="6.46652">
        <ele>2131</ele>
        <time>2021-02-06T10:14:51Z</time>
      </trkpt>
      <trkpt lat="45.89036" lon="6.46658">
        <ele>2134</ele>
        <time>2021-02-06T10:15:14Z</time>
      </trkpt>
      <trkpt lat="45.89033" lon="6.46665">
        <ele>2136</ele>
        <time>2021-02-06T10:15:31Z</time>
      </trkpt>
      <trkpt lat="45.89038" lon="6.46668">
        <ele>2137</ele>
        <time>2021-02-06T10:15:51Z</time>
      </trkpt>
      <trkpt lat="45.89027" lon="6.46673">
        <ele>2143</ele>
        <time>2021-02-06T10:16:39Z</time>
      </trkpt>
      <trkpt lat="45.89017" lon="6.46686">
        <ele>2144</ele>
        <time>2021-02-06T10:17:09Z</time>
      </trkpt>
      <trkpt lat="45.89033" lon="6.46703">
        <ele>2148</ele>
        <time>2021-02-06T10:17:37Z</time>
      </trkpt>
      <trkpt lat="45.89036" lon="6.46707">
        <ele>2149</ele>
        <time>2021-02-06T10:17:54Z</time>
      </trkpt>
      <trkpt lat="45.8904" lon="6.46709">
        <ele>2149</ele>
        <time>2021-02-06T10:17:57Z</time>
      </trkpt>
      <trkpt lat="45.89046" lon="6.46711">
        <ele>2151</ele>
        <time>2021-02-06T10:18:05Z</time>
      </trkpt>
      <trkpt lat="45.89043" lon="6.46718">
        <ele>2151</ele>
        <time>2021-02-06T10:18:15Z</time>
      </trkpt>
      <trkpt lat="45.89038" lon="6.46717">
        <ele>2152</ele>
        <time>2021-02-06T10:18:25Z</time>
      </trkpt>
      <trkpt lat="45.89025" lon="6.4672">
        <ele>2158</ele>
        <time>2021-02-06T10:19:19Z</time>
      </trkpt>
      <trkpt lat="45.89016" lon="6.46723">
        <ele>2159</ele>
        <time>2021-02-06T10:19:38Z</time>
      </trkpt>
      <trkpt lat="45.89009" lon="6.46733">
        <ele>2160</ele>
        <time>2021-02-06T10:19:52Z</time>
      </trkpt>
      <trkpt lat="45.89017" lon="6.46746">
        <ele>2165</ele>
        <time>2021-02-06T10:20:38Z</time>
      </trkpt>
      <trkpt lat="45.89025" lon="6.46755">
        <ele>2167</ele>
        <time>2021-02-06T10:20:53Z</time>
      </trkpt>
      <trkpt lat="45.89034" lon="6.46756">
        <ele>2168</ele>
        <time>2021-02-06T10:21:01Z</time>
      </trkpt>
      <trkpt lat="45.89022" lon="6.46771">
        <ele>2172</ele>
        <time>2021-02-06T10:21:45Z</time>
      </trkpt>
      <trkpt lat="45.8901" lon="6.46775">
        <ele>2177</ele>
        <time>2021-02-06T10:22:22Z</time>
      </trkpt>
      <trkpt lat="45.88999" lon="6.46782">
        <ele>2182</ele>
        <time>2021-02-06T10:23:08Z</time>
      </trkpt>
      <trkpt lat="45.88989" lon="6.46784">
        <ele>2187</ele>
        <time>2021-02-06T10:24:12Z</time>
      </trkpt>
      <trkpt lat="45.88977" lon="6.4679">
        <ele>2190</ele>
        <time>2021-02-06T10:24:53Z</time>
      </trkpt>
      <trkpt lat="45.88968" lon="6.46797">
        <ele>2194</ele>
        <time>2021-02-06T10:25:37Z</time>
      </trkpt>
      <trkpt lat="45.88972" lon="6.46803">
        <ele>2197</ele>
        <time>2021-02-06T10:26:16Z</time>
      </trkpt>
      <trkpt lat="45.88976" lon="6.46806">
        <ele>2197</ele>
        <time>2021-02-06T10:26:20Z</time>
      </trkpt>
      <trkpt lat="45.88982" lon="6.46813">
        <ele>2200</ele>
        <time>2021-02-06T10:27:02Z</time>
      </trkpt>
      <trkpt lat="45.88988" lon="6.46823">
        <ele>2202</ele>
        <time>2021-02-06T10:27:31Z</time>
      </trkpt>
      <trkpt lat="45.88983" lon="6.46823">
        <ele>2202</ele>
        <time>2021-02-06T10:27:42Z</time>
      </trkpt>
      <trkpt lat="45.88988" lon="6.46831">
        <ele>2202</ele>
        <time>2021-02-06T10:28:14Z</time>
      </trkpt>
      <trkpt lat="45.88993" lon="6.46832">
        <ele>2204</ele>
        <time>2021-02-06T10:28:24Z</time>
      </trkpt>
      <trkpt lat="45.88982" lon="6.46843">
        <ele>2211</ele>
        <time>2021-02-06T10:29:33Z</time>
      </trkpt>
      <trkpt lat="45.88976" lon="6.46851">
        <ele>2210</ele>
        <time>2021-02-06T10:29:43Z</time>
      </trkpt>
      <trkpt lat="45.88966" lon="6.46856">
        <ele>2212</ele>
        <time>2021-02-06T10:30:00Z</time>
      </trkpt>
      <trkpt lat="45.88961" lon="6.46873">
        <ele>2216</ele>
        <time>2021-02-06T10:30:34Z</time>
      </trkpt>
      <trkpt lat="45.8895" lon="6.46878">
        <ele>2222</ele>
        <time>2021-02-06T10:31:34Z</time>
      </trkpt>
      <trkpt lat="45.88941" lon="6.46887">
        <ele>2221</ele>
        <time>2021-02-06T10:31:50Z</time>
      </trkpt>
      <trkpt lat="45.88933" lon="6.46895">
        <ele>2226</ele>
        <time>2021-02-06T10:32:32Z</time>
      </trkpt>
      <trkpt lat="45.88926" lon="6.46905">
        <ele>2227</ele>
        <time>2021-02-06T10:32:55Z</time>
      </trkpt>
      <trkpt lat="45.8894" lon="6.46914">
        <ele>2233</ele>
        <time>2021-02-06T10:34:10Z</time>
      </trkpt>
      <trkpt lat="45.88947" lon="6.46919">
        <ele>2235</ele>
        <time>2021-02-06T10:34:51Z</time>
      </trkpt>
      <trkpt lat="45.88944" lon="6.46927">
        <ele>2239</ele>
        <time>2021-02-06T10:35:26Z</time>
      </trkpt>
      <trkpt lat="45.88935" lon="6.46934">
        <ele>2243</ele>
        <time>2021-02-06T10:36:12Z</time>
      </trkpt>
      <trkpt lat="45.88927" lon="6.4694">
        <ele>2248</ele>
        <time>2021-02-06T10:36:48Z</time>
      </trkpt>
      <trkpt lat="45.88919" lon="6.46948">
        <ele>2249</ele>
        <time>2021-02-06T10:37:10Z</time>
      </trkpt>
      <trkpt lat="45.88906" lon="6.4696">
        <ele>2255</ele>
        <time>2021-02-06T10:37:34Z</time>
      </trkpt>
      <trkpt lat="45.88896" lon="6.46965">
        <ele>2255</ele>
        <time>2021-02-06T10:38:13Z</time>
      </trkpt>
      <trkpt lat="45.88885" lon="6.4697">
        <ele>2260</ele>
        <time>2021-02-06T10:38:50Z</time>
      </trkpt>
      <trkpt lat="45.88876" lon="6.4697">
        <ele>2257</ele>
        <time>2021-02-06T10:38:56Z</time>
      </trkpt>
      <trkpt lat="45.88866" lon="6.46965">
        <ele>2261</ele>
        <time>2021-02-06T10:39:20Z</time>
      </trkpt>
      <trkpt lat="45.88857" lon="6.46967">
        <ele>2260</ele>
        <time>2021-02-06T10:39:37Z</time>
      </trkpt>
      <trkpt lat="45.88855" lon="6.4696">
        <ele>2259</ele>
        <time>2021-02-06T10:39:52Z</time>
      </trkpt>
      <trkpt lat="45.88851" lon="6.46954">
        <ele>2262</ele>
        <time>2021-02-06T10:40:10Z</time>
      </trkpt>
      <trkpt lat="45.88849" lon="6.46949">
        <ele>2263</ele>
        <time>2021-02-06T10:40:14Z</time>
      </trkpt>
      <trkpt lat="45.88845" lon="6.46953">
        <ele>2263</ele>
        <time>2021-02-06T10:40:21Z</time>
      </trkpt>
      <trkpt lat="45.88842" lon="6.46948">
        <ele>2262</ele>
        <time>2021-02-06T10:40:25Z</time>
      </trkpt>
      <trkpt lat="45.88846" lon="6.46945">
        <ele>2264</ele>
        <time>2021-02-06T10:49:35Z</time>
      </trkpt>
      <trkpt lat="45.88846" lon="6.46947">
        <ele>2262</ele>
        <time>2021-02-06T11:01:30Z</time>
      </trkpt>
      <trkpt lat="45.88846" lon="6.46948">
        <ele>2269</ele>
        <time>2021-02-06T11:04:58Z</time>
      </trkpt>
      <trkpt lat="45.88848" lon="6.46949">
        <ele>2263</ele>
        <time>2021-02-06T11:10:14Z</time>
      </trkpt>
      <trkpt lat="45.88853" lon="6.4695">
        <ele>2267</ele>
        <time>2021-02-06T11:18:09Z</time>
      </trkpt>
      <trkpt lat="45.8886" lon="6.46962">
        <ele>2268</ele>
        <time>2021-02-06T11:18:15Z</time>
      </trkpt>
      <trkpt lat="45.88862" lon="6.46971">
        <ele>2266</ele>
        <time>2021-02-06T11:18:18Z</time>
      </trkpt>
      <trkpt lat="45.8886" lon="6.46981">
        <ele>2265</ele>
        <time>2021-02-06T11:18:22Z</time>
      </trkpt>
      <trkpt lat="45.88867" lon="6.46981">
        <ele>2264</ele>
        <time>2021-02-06T11:18:26Z</time>
      </trkpt>
      <trkpt lat="45.88872" lon="6.46977">
        <ele>2264</ele>
        <time>2021-02-06T11:18:28Z</time>
      </trkpt>
      <trkpt lat="45.88876" lon="6.46974">
        <ele>2264</ele>
        <time>2021-02-06T11:18:30Z</time>
      </trkpt>
      <trkpt lat="45.88883" lon="6.46973">
        <ele>2251</ele>
        <time>2021-02-06T11:19:02Z</time>
      </trkpt>
      <trkpt lat="45.88889" lon="6.46968">
        <ele>2249</ele>
        <time>2021-02-06T11:19:04Z</time>
      </trkpt>
      <trkpt lat="45.88889" lon="6.4696">
        <ele>2247</ele>
        <time>2021-02-06T11:19:06Z</time>
      </trkpt>
      <trkpt lat="45.88885" lon="6.46952">
        <ele>2244</ele>
        <time>2021-02-06T11:19:08Z</time>
      </trkpt>
      <trkpt lat="45.88892" lon="6.46945">
        <ele>2240</ele>
        <time>2021-02-06T11:19:11Z</time>
      </trkpt>
      <trkpt lat="45.88897" lon="6.46946">
        <ele>2240</ele>
        <time>2021-02-06T11:19:12Z</time>
      </trkpt>
      <trkpt lat="45.88901" lon="6.46946">
        <ele>2239</ele>
        <time>2021-02-06T11:19:13Z</time>
      </trkpt>
      <trkpt lat="45.8891" lon="6.46942">
        <ele>2237</ele>
        <time>2021-02-06T11:19:15Z</time>
      </trkpt>
      <trkpt lat="45.88914" lon="6.46933">
        <ele>2234</ele>
        <time>2021-02-06T11:19:17Z</time>
      </trkpt>
      <trkpt lat="45.88918" lon="6.46926">
        <ele>2231</ele>
        <time>2021-02-06T11:19:19Z</time>
      </trkpt>
      <trkpt lat="45.88925" lon="6.46923">
        <ele>2230</ele>
        <time>2021-02-06T11:19:21Z</time>
      </trkpt>
      <trkpt lat="45.88929" lon="6.46918">
        <ele>2226</ele>
        <time>2021-02-06T11:19:23Z</time>
      </trkpt>
      <trkpt lat="45.88927" lon="6.46904">
        <ele>2222</ele>
        <time>2021-02-06T11:19:27Z</time>
      </trkpt>
      <trkpt lat="45.88953" lon="6.46888">
        <ele>2215</ele>
        <time>2021-02-06T11:19:35Z</time>
      </trkpt>
      <trkpt lat="45.88951" lon="6.46881">
        <ele>2212</ele>
        <time>2021-02-06T11:19:37Z</time>
      </trkpt>
      <trkpt lat="45.88945" lon="6.46873">
        <ele>2210</ele>
        <time>2021-02-06T11:19:39Z</time>
      </trkpt>
      <trkpt lat="45.88947" lon="6.46864">
        <ele>2207</ele>
        <time>2021-02-06T11:19:41Z</time>
      </trkpt>
      <trkpt lat="45.88951" lon="6.4686">
        <ele>2207</ele>
        <time>2021-02-06T11:19:42Z</time>
      </trkpt>
      <trkpt lat="45.88955" lon="6.46853">
        <ele>2205</ele>
        <time>2021-02-06T11:19:44Z</time>
      </trkpt>
      <trkpt lat="45.88954" lon="6.46851">
        <ele>2203</ele>
        <time>2021-02-06T11:20:29Z</time>
      </trkpt>
      <trkpt lat="45.88949" lon="6.46847">
        <ele>2204</ele>
        <time>2021-02-06T11:20:59Z</time>
      </trkpt>
      <trkpt lat="45.8895" lon="6.46825">
        <ele>2200</ele>
        <time>2021-02-06T11:21:02Z</time>
      </trkpt>
      <trkpt lat="45.8895" lon="6.46818">
        <ele>2201</ele>
        <time>2021-02-06T11:21:03Z</time>
      </trkpt>
      <trkpt lat="45.88947" lon="6.46801">
        <ele>2197</ele>
        <time>2021-02-06T11:21:06Z</time>
      </trkpt>
      <trkpt lat="45.88946" lon="6.46788">
        <ele>2194</ele>
        <time>2021-02-06T11:21:08Z</time>
      </trkpt>
      <trkpt lat="45.88946" lon="6.46782">
        <ele>2192</ele>
        <time>2021-02-06T11:21:10Z</time>
      </trkpt>
      <trkpt lat="45.88946" lon="6.46773">
        <ele>2190</ele>
        <time>2021-02-06T11:21:12Z</time>
      </trkpt>
      <trkpt lat="45.88943" lon="6.46767">
        <ele>2187</ele>
        <time>2021-02-06T11:21:14Z</time>
      </trkpt>
      <trkpt lat="45.88939" lon="6.46744">
        <ele>2183</ele>
        <time>2021-02-06T11:21:17Z</time>
      </trkpt>
      <trkpt lat="45.88941" lon="6.46733">
        <ele>2180</ele>
        <time>2021-02-06T11:21:19Z</time>
      </trkpt>
      <trkpt lat="45.88934" lon="6.46717">
        <ele>2175</ele>
        <time>2021-02-06T11:21:21Z</time>
      </trkpt>
      <trkpt lat="45.88932" lon="6.46707">
        <ele>2175</ele>
        <time>2021-02-06T11:21:23Z</time>
      </trkpt>
      <trkpt lat="45.88927" lon="6.46698">
        <ele>2171</ele>
        <time>2021-02-06T11:21:25Z</time>
      </trkpt>
      <trkpt lat="45.88921" lon="6.46696">
        <ele>2171</ele>
        <time>2021-02-06T11:21:27Z</time>
      </trkpt>
      <trkpt lat="45.88916" lon="6.46697">
        <ele>2170</ele>
        <time>2021-02-06T11:21:29Z</time>
      </trkpt>
      <trkpt lat="45.88917" lon="6.46688">
        <ele>2169</ele>
        <time>2021-02-06T11:21:32Z</time>
      </trkpt>
      <trkpt lat="45.88929" lon="6.46677">
        <ele>2165</ele>
        <time>2021-02-06T11:21:36Z</time>
      </trkpt>
      <trkpt lat="45.88923" lon="6.46675">
        <ele>2163</ele>
        <time>2021-02-06T11:21:59Z</time>
      </trkpt>
      <trkpt lat="45.88926" lon="6.46667">
        <ele>2163</ele>
        <time>2021-02-06T11:23:06Z</time>
      </trkpt>
      <trkpt lat="45.88912" lon="6.46666">
        <ele>2159</ele>
        <time>2021-02-06T11:23:30Z</time>
      </trkpt>
      <trkpt lat="45.889" lon="6.46666">
        <ele>2159</ele>
        <time>2021-02-06T11:23:31Z</time>
      </trkpt>
      <trkpt lat="45.8889" lon="6.46663">
        <ele>2159</ele>
        <time>2021-02-06T11:23:33Z</time>
      </trkpt>
      <trkpt lat="45.88885" lon="6.46648">
        <ele>2157</ele>
        <time>2021-02-06T11:23:37Z</time>
      </trkpt>
      <trkpt lat="45.88894" lon="6.46634">
        <ele>2152</ele>
        <time>2021-02-06T11:23:42Z</time>
      </trkpt>
      <trkpt lat="45.88889" lon="6.46623">
        <ele>2150</ele>
        <time>2021-02-06T11:23:45Z</time>
      </trkpt>
      <trkpt lat="45.88896" lon="6.46608">
        <ele>2142</ele>
        <time>2021-02-06T11:23:50Z</time>
      </trkpt>
      <trkpt lat="45.88897" lon="6.46594">
        <ele>2139</ele>
        <time>2021-02-06T11:23:54Z</time>
      </trkpt>
      <trkpt lat="45.88894" lon="6.46581">
        <ele>2136</ele>
        <time>2021-02-06T11:23:57Z</time>
      </trkpt>
      <trkpt lat="45.88896" lon="6.46569">
        <ele>2134</ele>
        <time>2021-02-06T11:24:00Z</time>
      </trkpt>
      <trkpt lat="45.88902" lon="6.46557">
        <ele>2131</ele>
        <time>2021-02-06T11:24:03Z</time>
      </trkpt>
      <trkpt lat="45.88898" lon="6.46542">
        <ele>2127</ele>
        <time>2021-02-06T11:24:06Z</time>
      </trkpt>
      <trkpt lat="45.88899" lon="6.46542">
        <ele>2124</ele>
        <time>2021-02-06T11:25:02Z</time>
      </trkpt>
      <trkpt lat="45.88883" lon="6.46519">
        <ele>2121</ele>
        <time>2021-02-06T11:25:34Z</time>
      </trkpt>
      <trkpt lat="45.88878" lon="6.4651">
        <ele>2120</ele>
        <time>2021-02-06T11:25:36Z</time>
      </trkpt>
      <trkpt lat="45.88881" lon="6.46504">
        <ele>2117</ele>
        <time>2021-02-06T11:25:39Z</time>
      </trkpt>
      <trkpt lat="45.88887" lon="6.46489">
        <ele>2112</ele>
        <time>2021-02-06T11:25:43Z</time>
      </trkpt>
      <trkpt lat="45.88892" lon="6.46485">
        <ele>2107</ele>
        <time>2021-02-06T11:25:45Z</time>
      </trkpt>
      <trkpt lat="45.88896" lon="6.46481">
        <ele>2107</ele>
        <time>2021-02-06T11:25:47Z</time>
      </trkpt>
      <trkpt lat="45.88901" lon="6.46476">
        <ele>2103</ele>
        <time>2021-02-06T11:25:49Z</time>
      </trkpt>
      <trkpt lat="45.88907" lon="6.46469">
        <ele>2100</ele>
        <time>2021-02-06T11:25:51Z</time>
      </trkpt>
      <trkpt lat="45.88904" lon="6.46459">
        <ele>2099</ele>
        <time>2021-02-06T11:25:53Z</time>
      </trkpt>
      <trkpt lat="45.88893" lon="6.46447">
        <ele>2097</ele>
        <time>2021-02-06T11:25:56Z</time>
      </trkpt>
      <trkpt lat="45.88896" lon="6.4644">
        <ele>2089</ele>
        <time>2021-02-06T11:26:00Z</time>
      </trkpt>
      <trkpt lat="45.88896" lon="6.4643">
        <ele>2086</ele>
        <time>2021-02-06T11:26:03Z</time>
      </trkpt>
      <trkpt lat="45.88893" lon="6.46426">
        <ele>2085</ele>
        <time>2021-02-06T11:26:04Z</time>
      </trkpt>
      <trkpt lat="45.88889" lon="6.46423">
        <ele>2085</ele>
        <time>2021-02-06T11:26:05Z</time>
      </trkpt>
      <trkpt lat="45.88881" lon="6.46419">
        <ele>2084</ele>
        <time>2021-02-06T11:26:07Z</time>
      </trkpt>
      <trkpt lat="45.88897" lon="6.4641">
        <ele>2075</ele>
        <time>2021-02-06T11:26:29Z</time>
      </trkpt>
      <trkpt lat="45.88924" lon="6.46415">
        <ele>2071</ele>
        <time>2021-02-06T11:26:32Z</time>
      </trkpt>
      <trkpt lat="45.8893" lon="6.4642">
        <ele>2072</ele>
        <time>2021-02-06T11:26:33Z</time>
      </trkpt>
      <trkpt lat="45.88944" lon="6.46426">
        <ele>2070</ele>
        <time>2021-02-06T11:26:35Z</time>
      </trkpt>
      <trkpt lat="45.88953" lon="6.46429">
        <ele>2068</ele>
        <time>2021-02-06T11:26:38Z</time>
      </trkpt>
      <trkpt lat="45.88959" lon="6.46427">
        <ele>2069</ele>
        <time>2021-02-06T11:26:39Z</time>
      </trkpt>
      <trkpt lat="45.88995" lon="6.46423">
        <ele>2061</ele>
        <time>2021-02-06T11:26:44Z</time>
      </trkpt>
      <trkpt lat="45.89001" lon="6.46423">
        <ele>2062</ele>
        <time>2021-02-06T11:26:45Z</time>
      </trkpt>
      <trkpt lat="45.89007" lon="6.46423">
        <ele>2062</ele>
        <time>2021-02-06T11:26:46Z</time>
      </trkpt>
      <trkpt lat="45.89027" lon="6.46425">
        <ele>2060</ele>
        <time>2021-02-06T11:26:50Z</time>
      </trkpt>
      <trkpt lat="45.89022" lon="6.4642">
        <ele>2058</ele>
        <time>2021-02-06T11:26:51Z</time>
      </trkpt>
      <trkpt lat="45.89018" lon="6.4641">
        <ele>2057</ele>
        <time>2021-02-06T11:26:53Z</time>
      </trkpt>
      <trkpt lat="45.89015" lon="6.46406">
        <ele>2056</ele>
        <time>2021-02-06T11:26:54Z</time>
      </trkpt>
      <trkpt lat="45.89016" lon="6.46398">
        <ele>2053</ele>
        <time>2021-02-06T11:26:56Z</time>
      </trkpt>
      <trkpt lat="45.89012" lon="6.46387">
        <ele>2047</ele>
        <time>2021-02-06T11:26:58Z</time>
      </trkpt>
      <trkpt lat="45.8901" lon="6.46378">
        <ele>2047</ele>
        <time>2021-02-06T11:27:00Z</time>
      </trkpt>
      <trkpt lat="45.89026" lon="6.46334">
        <ele>2035</ele>
        <time>2021-02-06T11:27:10Z</time>
      </trkpt>
      <trkpt lat="45.89024" lon="6.46324">
        <ele>2032</ele>
        <time>2021-02-06T11:27:12Z</time>
      </trkpt>
      <trkpt lat="45.89016" lon="6.46316">
        <ele>2028</ele>
        <time>2021-02-06T11:27:14Z</time>
      </trkpt>
      <trkpt lat="45.89013" lon="6.46311">
        <ele>2026</ele>
        <time>2021-02-06T11:27:16Z</time>
      </trkpt>
      <trkpt lat="45.89014" lon="6.46301">
        <ele>2023</ele>
        <time>2021-02-06T11:27:17Z</time>
      </trkpt>
      <trkpt lat="45.89013" lon="6.46277">
        <ele>2019</ele>
        <time>2021-02-06T11:27:20Z</time>
      </trkpt>
      <trkpt lat="45.89018" lon="6.46274">
        <ele>2017</ele>
        <time>2021-02-06T11:27:21Z</time>
      </trkpt>
      <trkpt lat="45.89022" lon="6.4626">
        <ele>2015</ele>
        <time>2021-02-06T11:27:23Z</time>
      </trkpt>
      <trkpt lat="45.89012" lon="6.46255">
        <ele>2014</ele>
        <time>2021-02-06T11:27:25Z</time>
      </trkpt>
      <trkpt lat="45.89013" lon="6.46252">
        <ele>2013</ele>
        <time>2021-02-06T11:29:31Z</time>
      </trkpt>
      <trkpt lat="45.89033" lon="6.46239">
        <ele>2006</ele>
        <time>2021-02-06T11:30:23Z</time>
      </trkpt>
      <trkpt lat="45.89009" lon="6.46229">
        <ele>2002</ele>
        <time>2021-02-06T11:30:26Z</time>
      </trkpt>
      <trkpt lat="45.89023" lon="6.46214">
        <ele>1996</ele>
        <time>2021-02-06T11:30:29Z</time>
      </trkpt>
      <trkpt lat="45.89024" lon="6.46195">
        <ele>1992</ele>
        <time>2021-02-06T11:30:31Z</time>
      </trkpt>
      <trkpt lat="45.89018" lon="6.46181">
        <ele>1987</ele>
        <time>2021-02-06T11:30:33Z</time>
      </trkpt>
      <trkpt lat="45.89012" lon="6.46172">
        <ele>1988</ele>
        <time>2021-02-06T11:30:35Z</time>
      </trkpt>
      <trkpt lat="45.8903" lon="6.46163">
        <ele>1977</ele>
        <time>2021-02-06T11:30:39Z</time>
      </trkpt>
      <trkpt lat="45.89028" lon="6.46156">
        <ele>1978</ele>
        <time>2021-02-06T11:30:40Z</time>
      </trkpt>
      <trkpt lat="45.89022" lon="6.46146">
        <ele>1975</ele>
        <time>2021-02-06T11:30:41Z</time>
      </trkpt>
      <trkpt lat="45.89014" lon="6.46132">
        <ele>1974</ele>
        <time>2021-02-06T11:30:43Z</time>
      </trkpt>
      <trkpt lat="45.89014" lon="6.46097">
        <ele>1964</ele>
        <time>2021-02-06T11:30:47Z</time>
      </trkpt>
      <trkpt lat="45.89008" lon="6.46083">
        <ele>1961</ele>
        <time>2021-02-06T11:30:49Z</time>
      </trkpt>
      <trkpt lat="45.89008" lon="6.46075">
        <ele>1953</ele>
        <time>2021-02-06T11:30:51Z</time>
      </trkpt>
      <trkpt lat="45.89015" lon="6.46064">
        <ele>1949</ele>
        <time>2021-02-06T11:30:53Z</time>
      </trkpt>
      <trkpt lat="45.89036" lon="6.46061">
        <ele>1946</ele>
        <time>2021-02-06T11:30:56Z</time>
      </trkpt>
      <trkpt lat="45.89038" lon="6.46054">
        <ele>1944</ele>
        <time>2021-02-06T11:30:57Z</time>
      </trkpt>
      <trkpt lat="45.89038" lon="6.46047">
        <ele>1942</ele>
        <time>2021-02-06T11:30:58Z</time>
      </trkpt>
      <trkpt lat="45.89036" lon="6.46039">
        <ele>1941</ele>
        <time>2021-02-06T11:30:59Z</time>
      </trkpt>
      <trkpt lat="45.89042" lon="6.46022">
        <ele>1936</ele>
        <time>2021-02-06T11:31:02Z</time>
      </trkpt>
      <trkpt lat="45.89038" lon="6.46004">
        <ele>1932</ele>
        <time>2021-02-06T11:31:04Z</time>
      </trkpt>
      <trkpt lat="45.89041" lon="6.45998">
        <ele>1930</ele>
        <time>2021-02-06T11:31:05Z</time>
      </trkpt>
      <trkpt lat="45.89043" lon="6.45991">
        <ele>1930</ele>
        <time>2021-02-06T11:31:06Z</time>
      </trkpt>
      <trkpt lat="45.89049" lon="6.45978">
        <ele>1924</ele>
        <time>2021-02-06T11:31:09Z</time>
      </trkpt>
      <trkpt lat="45.89052" lon="6.4597">
        <ele>1926</ele>
        <time>2021-02-06T11:31:10Z</time>
      </trkpt>
      <trkpt lat="45.89054" lon="6.45958">
        <ele>1925</ele>
        <time>2021-02-06T11:31:11Z</time>
      </trkpt>
      <trkpt lat="45.89057" lon="6.45949">
        <ele>1922</ele>
        <time>2021-02-06T11:31:12Z</time>
      </trkpt>
      <trkpt lat="45.89059" lon="6.45942">
        <ele>1922</ele>
        <time>2021-02-06T11:31:13Z</time>
      </trkpt>
      <trkpt lat="45.89062" lon="6.45934">
        <ele>1920</ele>
        <time>2021-02-06T11:31:14Z</time>
      </trkpt>
      <trkpt lat="45.89065" lon="6.45924">
        <ele>1920</ele>
        <time>2021-02-06T11:31:15Z</time>
      </trkpt>
      <trkpt lat="45.89074" lon="6.45906">
        <ele>1917</ele>
        <time>2021-02-06T11:31:18Z</time>
      </trkpt>
      <trkpt lat="45.89076" lon="6.45901">
        <ele>1919</ele>
        <time>2021-02-06T11:31:19Z</time>
      </trkpt>
      <trkpt lat="45.89083" lon="6.45881">
        <ele>1918</ele>
        <time>2021-02-06T11:31:22Z</time>
      </trkpt>
      <trkpt lat="45.89082" lon="6.45872">
        <ele>1918</ele>
        <time>2021-02-06T11:31:27Z</time>
      </trkpt>
      <trkpt lat="45.8908" lon="6.45861">
        <ele>1914</ele>
        <time>2021-02-06T11:32:32Z</time>
      </trkpt>
      <trkpt lat="45.89071" lon="6.45845">
        <ele>1907</ele>
        <time>2021-02-06T11:33:24Z</time>
      </trkpt>
      <trkpt lat="45.89068" lon="6.45825">
        <ele>1903</ele>
        <time>2021-02-06T11:33:27Z</time>
      </trkpt>
      <trkpt lat="45.89071" lon="6.4566">
        <ele>1870</ele>
        <time>2021-02-06T11:33:52Z</time>
      </trkpt>
      <trkpt lat="45.89076" lon="6.45533">
        <ele>1848</ele>
        <time>2021-02-06T11:34:07Z</time>
      </trkpt>
      <trkpt lat="45.8902" lon="6.45306">
        <ele>1806</ele>
        <time>2021-02-06T11:34:36Z</time>
      </trkpt>
      <trkpt lat="45.88981" lon="6.45296">
        <ele>1802</ele>
        <time>2021-02-06T11:34:37Z</time>
      </trkpt>
      <trkpt lat="45.88979" lon="6.45285">
        <ele>1801</ele>
        <time>2021-02-06T11:34:38Z</time>
      </trkpt>
      <trkpt lat="45.88965" lon="6.45252">
        <ele>1793</ele>
        <time>2021-02-06T11:34:41Z</time>
      </trkpt>
      <trkpt lat="45.8896" lon="6.4524">
        <ele>1794</ele>
        <time>2021-02-06T11:34:42Z</time>
      </trkpt>
      <trkpt lat="45.88899" lon="6.45089">
        <ele>1771</ele>
        <time>2021-02-06T11:34:58Z</time>
      </trkpt>
      <trkpt lat="45.88896" lon="6.45078">
        <ele>1774</ele>
        <time>2021-02-06T11:34:59Z</time>
      </trkpt>
      <trkpt lat="45.88893" lon="6.4507">
        <ele>1772</ele>
        <time>2021-02-06T11:35:00Z</time>
      </trkpt>
      <trkpt lat="45.88894" lon="6.45054">
        <ele>1768</ele>
        <time>2021-02-06T11:35:02Z</time>
      </trkpt>
      <trkpt lat="45.88891" lon="6.45047">
        <ele>1767</ele>
        <time>2021-02-06T11:35:03Z</time>
      </trkpt>
      <trkpt lat="45.88891" lon="6.45035">
        <ele>1765</ele>
        <time>2021-02-06T11:35:05Z</time>
      </trkpt>
      <trkpt lat="45.88883" lon="6.45023">
        <ele>1763</ele>
        <time>2021-02-06T11:35:26Z</time>
      </trkpt>
      <trkpt lat="45.88886" lon="6.45014">
        <ele>1763</ele>
        <time>2021-02-06T11:37:01Z</time>
      </trkpt>
      <trkpt lat="45.88886" lon="6.45003">
        <ele>1761</ele>
        <time>2021-02-06T11:37:03Z</time>
      </trkpt>
      <trkpt lat="45.88886" lon="6.44996">
        <ele>1761</ele>
        <time>2021-02-06T11:37:04Z</time>
      </trkpt>
      <trkpt lat="45.88885" lon="6.44972">
        <ele>1759</ele>
        <time>2021-02-06T11:37:07Z</time>
      </trkpt>
      <trkpt lat="45.88886" lon="6.44964">
        <ele>1760</ele>
        <time>2021-02-06T11:37:08Z</time>
      </trkpt>
      <trkpt lat="45.88887" lon="6.44956">
        <ele>1758</ele>
        <time>2021-02-06T11:37:09Z</time>
      </trkpt>
      <trkpt lat="45.88899" lon="6.44945">
        <ele>1757</ele>
        <time>2021-02-06T11:37:11Z</time>
      </trkpt>
      <trkpt lat="45.88904" lon="6.44922">
        <ele>1757</ele>
        <time>2021-02-06T11:37:14Z</time>
      </trkpt>
      <trkpt lat="45.88942" lon="6.44782">
        <ele>1742</ele>
        <time>2021-02-06T11:37:34Z</time>
      </trkpt>
      <trkpt lat="45.88943" lon="6.44765">
        <ele>1738</ele>
        <time>2021-02-06T11:37:36Z</time>
      </trkpt>
      <trkpt lat="45.88943" lon="6.44757">
        <ele>1740</ele>
        <time>2021-02-06T11:37:37Z</time>
      </trkpt>
      <trkpt lat="45.88944" lon="6.4475">
        <ele>1739</ele>
        <time>2021-02-06T11:37:38Z</time>
      </trkpt>
      <trkpt lat="45.88944" lon="6.44742">
        <ele>1737</ele>
        <time>2021-02-06T11:37:39Z</time>
      </trkpt>
      <trkpt lat="45.88945" lon="6.44732">
        <ele>1737</ele>
        <time>2021-02-06T11:37:41Z</time>
      </trkpt>
      <trkpt lat="45.88947" lon="6.44712">
        <ele>1734</ele>
        <time>2021-02-06T11:37:44Z</time>
      </trkpt>
      <trkpt lat="45.88988" lon="6.44651">
        <ele>1722</ele>
        <time>2021-02-06T11:37:57Z</time>
      </trkpt>
      <trkpt lat="45.88991" lon="6.44647">
        <ele>1723</ele>
        <time>2021-02-06T11:37:58Z</time>
      </trkpt>
      <trkpt lat="45.88995" lon="6.44641">
        <ele>1720</ele>
        <time>2021-02-06T11:37:59Z</time>
      </trkpt>
      <trkpt lat="45.88998" lon="6.44634">
        <ele>1721</ele>
        <time>2021-02-06T11:38:00Z</time>
      </trkpt>
      <trkpt lat="45.89003" lon="6.44634">
        <ele>1718</ele>
        <time>2021-02-06T11:38:01Z</time>
      </trkpt>
      <trkpt lat="45.89008" lon="6.44624">
        <ele>1717</ele>
        <time>2021-02-06T11:38:09Z</time>
      </trkpt>
      <trkpt lat="45.89014" lon="6.44619">
        <ele>1717</ele>
        <time>2021-02-06T11:38:42Z</time>
      </trkpt>
      <trkpt lat="45.89068" lon="6.44627">
        <ele>1708</ele>
        <time>2021-02-06T11:38:57Z</time>
      </trkpt>
      <trkpt lat="45.89075" lon="6.44631">
        <ele>1708</ele>
        <time>2021-02-06T11:38:59Z</time>
      </trkpt>
      <trkpt lat="45.89083" lon="6.44637">
        <ele>1707</ele>
        <time>2021-02-06T11:39:01Z</time>
      </trkpt>
      <trkpt lat="45.89096" lon="6.44646">
        <ele>1704</ele>
        <time>2021-02-06T11:39:05Z</time>
      </trkpt>
      <trkpt lat="45.89103" lon="6.44652">
        <ele>1704</ele>
        <time>2021-02-06T11:39:07Z</time>
      </trkpt>
      <trkpt lat="45.89108" lon="6.44656">
        <ele>1702</ele>
        <time>2021-02-06T11:39:08Z</time>
      </trkpt>
      <trkpt lat="45.89115" lon="6.44663">
        <ele>1703</ele>
        <time>2021-02-06T11:39:10Z</time>
      </trkpt>
      <trkpt lat="45.89122" lon="6.44669">
        <ele>1700</ele>
        <time>2021-02-06T11:39:12Z</time>
      </trkpt>
      <trkpt lat="45.89126" lon="6.44671">
        <ele>1701</ele>
        <time>2021-02-06T11:39:13Z</time>
      </trkpt>
      <trkpt lat="45.89131" lon="6.44672">
        <ele>1699</ele>
        <time>2021-02-06T11:39:14Z</time>
      </trkpt>
      <trkpt lat="45.89135" lon="6.44676">
        <ele>1699</ele>
        <time>2021-02-06T11:39:15Z</time>
      </trkpt>
      <trkpt lat="45.89139" lon="6.4468">
        <ele>1697</ele>
        <time>2021-02-06T11:39:16Z</time>
      </trkpt>
      <trkpt lat="45.89145" lon="6.4468">
        <ele>1697</ele>
        <time>2021-02-06T11:39:17Z</time>
      </trkpt>
      <trkpt lat="45.89159" lon="6.44686">
        <ele>1692</ele>
        <time>2021-02-06T11:39:20Z</time>
      </trkpt>
      <trkpt lat="45.89166" lon="6.44693">
        <ele>1692</ele>
        <time>2021-02-06T11:39:22Z</time>
      </trkpt>
      <trkpt lat="45.89184" lon="6.44705">
        <ele>1688</ele>
        <time>2021-02-06T11:39:26Z</time>
      </trkpt>
      <trkpt lat="45.89191" lon="6.44708">
        <ele>1689</ele>
        <time>2021-02-06T11:39:27Z</time>
      </trkpt>
      <trkpt lat="45.89195" lon="6.44712">
        <ele>1688</ele>
        <time>2021-02-06T11:39:28Z</time>
      </trkpt>
      <trkpt lat="45.89213" lon="6.44719">
        <ele>1685</ele>
        <time>2021-02-06T11:39:32Z</time>
      </trkpt>
      <trkpt lat="45.89223" lon="6.44725">
        <ele>1684</ele>
        <time>2021-02-06T11:39:34Z</time>
      </trkpt>
      <trkpt lat="45.89227" lon="6.44727">
        <ele>1682</ele>
        <time>2021-02-06T11:39:35Z</time>
      </trkpt>
      <trkpt lat="45.89233" lon="6.44731">
        <ele>1682</ele>
        <time>2021-02-06T11:39:36Z</time>
      </trkpt>
      <trkpt lat="45.89239" lon="6.44735">
        <ele>1681</ele>
        <time>2021-02-06T11:39:37Z</time>
      </trkpt>
      <trkpt lat="45.89243" lon="6.44738">
        <ele>1680</ele>
        <time>2021-02-06T11:39:38Z</time>
      </trkpt>
      <trkpt lat="45.8925" lon="6.4474">
        <ele>1678</ele>
        <time>2021-02-06T11:39:39Z</time>
      </trkpt>
      <trkpt lat="45.89255" lon="6.44743">
        <ele>1678</ele>
        <time>2021-02-06T11:39:40Z</time>
      </trkpt>
      <trkpt lat="45.8926" lon="6.44747">
        <ele>1678</ele>
        <time>2021-02-06T11:39:41Z</time>
      </trkpt>
      <trkpt lat="45.89265" lon="6.44743">
        <ele>1676</ele>
        <time>2021-02-06T11:39:43Z</time>
      </trkpt>
      <trkpt lat="45.8927" lon="6.44749">
        <ele>1675</ele>
        <time>2021-02-06T11:39:45Z</time>
      </trkpt>
      <trkpt lat="45.89275" lon="6.44754">
        <ele>1674</ele>
        <time>2021-02-06T11:39:48Z</time>
      </trkpt>
      <trkpt lat="45.89281" lon="6.44755">
        <ele>1675</ele>
        <time>2021-02-06T11:39:50Z</time>
      </trkpt>
      <trkpt lat="45.89287" lon="6.4476">
        <ele>1673</ele>
        <time>2021-02-06T11:39:52Z</time>
      </trkpt>
      <trkpt lat="45.8929" lon="6.44741">
        <ele>1667</ele>
        <time>2021-02-06T11:40:04Z</time>
      </trkpt>
      <trkpt lat="45.89284" lon="6.4473">
        <ele>1667</ele>
        <time>2021-02-06T11:40:19Z</time>
      </trkpt>
      <trkpt lat="45.89287" lon="6.44723">
        <ele>1664</ele>
        <time>2021-02-06T11:40:21Z</time>
      </trkpt>
      <trkpt lat="45.89291" lon="6.44712">
        <ele>1661</ele>
        <time>2021-02-06T11:40:23Z</time>
      </trkpt>
      <trkpt lat="45.8929" lon="6.44705">
        <ele>1659</ele>
        <time>2021-02-06T11:40:24Z</time>
      </trkpt>
      <trkpt lat="45.89287" lon="6.447">
        <ele>1659</ele>
        <time>2021-02-06T11:40:25Z</time>
      </trkpt>
      <trkpt lat="45.89283" lon="6.44695">
        <ele>1656</ele>
        <time>2021-02-06T11:40:27Z</time>
      </trkpt>
      <trkpt lat="45.89292" lon="6.44677">
        <ele>1653</ele>
        <time>2021-02-06T11:40:29Z</time>
      </trkpt>
      <trkpt lat="45.89291" lon="6.44671">
        <ele>1652</ele>
        <time>2021-02-06T11:40:30Z</time>
      </trkpt>
      <trkpt lat="45.89292" lon="6.44657">
        <ele>1648</ele>
        <time>2021-02-06T11:40:32Z</time>
      </trkpt>
      <trkpt lat="45.89297" lon="6.44657">
        <ele>1646</ele>
        <time>2021-02-06T11:40:33Z</time>
      </trkpt>
      <trkpt lat="45.89295" lon="6.44649">
        <ele>1646</ele>
        <time>2021-02-06T11:40:34Z</time>
      </trkpt>
      <trkpt lat="45.89292" lon="6.44644">
        <ele>1645</ele>
        <time>2021-02-06T11:40:35Z</time>
      </trkpt>
      <trkpt lat="45.89295" lon="6.44636">
        <ele>1642</ele>
        <time>2021-02-06T11:40:37Z</time>
      </trkpt>
      <trkpt lat="45.89359" lon="6.44691">
        <ele>1622</ele>
        <time>2021-02-06T11:40:51Z</time>
      </trkpt>
      <trkpt lat="45.89381" lon="6.44615">
        <ele>1615</ele>
        <time>2021-02-06T11:40:57Z</time>
      </trkpt>
      <trkpt lat="45.89381" lon="6.44611">
        <ele>1616</ele>
        <time>2021-02-06T11:41:00Z</time>
      </trkpt>
      <trkpt lat="45.89387" lon="6.44607">
        <ele>1615</ele>
        <time>2021-02-06T11:41:45Z</time>
      </trkpt>
      <trkpt lat="45.89393" lon="6.44604">
        <ele>1615</ele>
        <time>2021-02-06T11:41:47Z</time>
      </trkpt>
      <trkpt lat="45.89403" lon="6.446">
        <ele>1615</ele>
        <time>2021-02-06T11:41:51Z</time>
      </trkpt>
      <trkpt lat="45.89396" lon="6.44602">
        <ele>1615</ele>
        <time>2021-02-06T11:41:53Z</time>
      </trkpt>
      <trkpt lat="45.89391" lon="6.44604">
        <ele>1614</ele>
        <time>2021-02-06T11:41:56Z</time>
      </trkpt>
      <trkpt lat="45.89386" lon="6.44606">
        <ele>1614</ele>
        <time>2021-02-06T11:42:01Z</time>
      </trkpt>
      <trkpt lat="45.8938" lon="6.44608">
        <ele>1614</ele>
        <time>2021-02-06T11:42:06Z</time>
      </trkpt>
      <trkpt lat="45.89375" lon="6.44604">
        <ele>1614</ele>
        <time>2021-02-06T11:42:09Z</time>
      </trkpt>
      <trkpt lat="45.89357" lon="6.44564">
        <ele>1608</ele>
        <time>2021-02-06T11:42:14Z</time>
      </trkpt>
      <trkpt lat="45.89358" lon="6.44555">
        <ele>1607</ele>
        <time>2021-02-06T11:42:15Z</time>
      </trkpt>
      <trkpt lat="45.89359" lon="6.44536">
        <ele>1604</ele>
        <time>2021-02-06T11:42:17Z</time>
      </trkpt>
      <trkpt lat="45.89358" lon="6.44494">
        <ele>1600</ele>
        <time>2021-02-06T11:42:22Z</time>
      </trkpt>
      <trkpt lat="45.89352" lon="6.44483">
        <ele>1600</ele>
        <time>2021-02-06T11:42:24Z</time>
      </trkpt>
      <trkpt lat="45.89349" lon="6.44478">
        <ele>1600</ele>
        <time>2021-02-06T11:42:25Z</time>
      </trkpt>
      <trkpt lat="45.89343" lon="6.44455">
        <ele>1596</ele>
        <time>2021-02-06T11:42:28Z</time>
      </trkpt>
      <trkpt lat="45.89342" lon="6.44448">
        <ele>1596</ele>
        <time>2021-02-06T11:42:29Z</time>
      </trkpt>
      <trkpt lat="45.89343" lon="6.44428">
        <ele>1593</ele>
        <time>2021-02-06T11:42:31Z</time>
      </trkpt>
      <trkpt lat="45.89342" lon="6.44418">
        <ele>1591</ele>
        <time>2021-02-06T11:42:32Z</time>
      </trkpt>
      <trkpt lat="45.89344" lon="6.4441">
        <ele>1591</ele>
        <time>2021-02-06T11:42:33Z</time>
      </trkpt>
      <trkpt lat="45.89346" lon="6.44402">
        <ele>1590</ele>
        <time>2021-02-06T11:42:34Z</time>
      </trkpt>
      <trkpt lat="45.89356" lon="6.44387">
        <ele>1587</ele>
        <time>2021-02-06T11:42:36Z</time>
      </trkpt>
      <trkpt lat="45.89362" lon="6.4438">
        <ele>1587</ele>
        <time>2021-02-06T11:42:37Z</time>
      </trkpt>
      <trkpt lat="45.89375" lon="6.4437">
        <ele>1583</ele>
        <time>2021-02-06T11:42:39Z</time>
      </trkpt>
      <trkpt lat="45.89382" lon="6.44369">
        <ele>1582</ele>
        <time>2021-02-06T11:42:40Z</time>
      </trkpt>
      <trkpt lat="45.89391" lon="6.44373">
        <ele>1580</ele>
        <time>2021-02-06T11:42:41Z</time>
      </trkpt>
      <trkpt lat="45.89399" lon="6.44377">
        <ele>1580</ele>
        <time>2021-02-06T11:42:42Z</time>
      </trkpt>
      <trkpt lat="45.89409" lon="6.44373">
        <ele>1579</ele>
        <time>2021-02-06T11:42:43Z</time>
      </trkpt>
      <trkpt lat="45.89417" lon="6.44372">
        <ele>1575</ele>
        <time>2021-02-06T11:42:44Z</time>
      </trkpt>
      <trkpt lat="45.89424" lon="6.44374">
        <ele>1576</ele>
        <time>2021-02-06T11:42:45Z</time>
      </trkpt>
      <trkpt lat="45.89431" lon="6.44377">
        <ele>1573</ele>
        <time>2021-02-06T11:42:46Z</time>
      </trkpt>
      <trkpt lat="45.89437" lon="6.44376">
        <ele>1572</ele>
        <time>2021-02-06T11:42:47Z</time>
      </trkpt>
      <trkpt lat="45.89451" lon="6.44372">
        <ele>1569</ele>
        <time>2021-02-06T11:42:49Z</time>
      </trkpt>
      <trkpt lat="45.89455" lon="6.44367">
        <ele>1569</ele>
        <time>2021-02-06T11:42:50Z</time>
      </trkpt>
      <trkpt lat="45.89461" lon="6.44363">
        <ele>1568</ele>
        <time>2021-02-06T11:42:51Z</time>
      </trkpt>
      <trkpt lat="45.8947" lon="6.44351">
        <ele>1565</ele>
        <time>2021-02-06T11:42:53Z</time>
      </trkpt>
      <trkpt lat="45.89475" lon="6.44345">
        <ele>1565</ele>
        <time>2021-02-06T11:42:54Z</time>
      </trkpt>
      <trkpt lat="45.8948" lon="6.4434">
        <ele>1564</ele>
        <time>2021-02-06T11:42:55Z</time>
      </trkpt>
      <trkpt lat="45.89485" lon="6.44337">
        <ele>1563</ele>
        <time>2021-02-06T11:42:56Z</time>
      </trkpt>
      <trkpt lat="45.89491" lon="6.44335">
        <ele>1563</ele>
        <time>2021-02-06T11:42:57Z</time>
      </trkpt>
      <trkpt lat="45.89495" lon="6.4433">
        <ele>1562</ele>
        <time>2021-02-06T11:42:58Z</time>
      </trkpt>
      <trkpt lat="45.89502" lon="6.44335">
        <ele>1560</ele>
        <time>2021-02-06T11:43:00Z</time>
      </trkpt>
      <trkpt lat="45.89514" lon="6.44327">
        <ele>1559</ele>
        <time>2021-02-06T11:43:03Z</time>
      </trkpt>
      <trkpt lat="45.89519" lon="6.4432">
        <ele>1557</ele>
        <time>2021-02-06T11:43:04Z</time>
      </trkpt>
      <trkpt lat="45.89525" lon="6.44317">
        <ele>1557</ele>
        <time>2021-02-06T11:43:05Z</time>
      </trkpt>
      <trkpt lat="45.8953" lon="6.44311">
        <ele>1555</ele>
        <time>2021-02-06T11:43:06Z</time>
      </trkpt>
      <trkpt lat="45.89532" lon="6.44304">
        <ele>1554</ele>
        <time>2021-02-06T11:43:07Z</time>
      </trkpt>
      <trkpt lat="45.89537" lon="6.44298">
        <ele>1554</ele>
        <time>2021-02-06T11:43:08Z</time>
      </trkpt>
      <trkpt lat="45.89545" lon="6.44288">
        <ele>1551</ele>
        <time>2021-02-06T11:43:10Z</time>
      </trkpt>
      <trkpt lat="45.89553" lon="6.44282">
        <ele>1551</ele>
        <time>2021-02-06T11:43:11Z</time>
      </trkpt>
      <trkpt lat="45.8957" lon="6.44275">
        <ele>1548</ele>
        <time>2021-02-06T11:43:14Z</time>
      </trkpt>
      <trkpt lat="45.89588" lon="6.44242">
        <ele>1545</ele>
        <time>2021-02-06T11:43:18Z</time>
      </trkpt>
      <trkpt lat="45.89592" lon="6.44239">
        <ele>1544</ele>
        <time>2021-02-06T11:43:19Z</time>
      </trkpt>
      <trkpt lat="45.89596" lon="6.4423">
        <ele>1542</ele>
        <time>2021-02-06T11:43:20Z</time>
      </trkpt>
      <trkpt lat="45.89599" lon="6.44221">
        <ele>1543</ele>
        <time>2021-02-06T11:43:21Z</time>
      </trkpt>
      <trkpt lat="45.89606" lon="6.44219">
        <ele>1541</ele>
        <time>2021-02-06T11:43:23Z</time>
      </trkpt>
      <trkpt lat="45.89613" lon="6.44215">
        <ele>1540</ele>
        <time>2021-02-06T11:44:20Z</time>
      </trkpt>
      <trkpt lat="45.89619" lon="6.44212">
        <ele>1540</ele>
        <time>2021-02-06T11:44:22Z</time>
      </trkpt>
      <trkpt lat="45.89631" lon="6.44205">
        <ele>1534</ele>
        <time>2021-02-06T11:44:27Z</time>
      </trkpt>
      <trkpt lat="45.89636" lon="6.44194">
        <ele>1534</ele>
        <time>2021-02-06T11:44:28Z</time>
      </trkpt>
      <trkpt lat="45.89646" lon="6.44182">
        <ele>1531</ele>
        <time>2021-02-06T11:44:30Z</time>
      </trkpt>
      <trkpt lat="45.89643" lon="6.44175">
        <ele>1530</ele>
        <time>2021-02-06T11:44:31Z</time>
      </trkpt>
      <trkpt lat="45.89641" lon="6.44169">
        <ele>1529</ele>
        <time>2021-02-06T11:44:32Z</time>
      </trkpt>
      <trkpt lat="45.89638" lon="6.44163">
        <ele>1529</ele>
        <time>2021-02-06T11:44:33Z</time>
      </trkpt>
      <trkpt lat="45.89637" lon="6.44154">
        <ele>1528</ele>
        <time>2021-02-06T11:44:34Z</time>
      </trkpt>
      <trkpt lat="45.89641" lon="6.44144">
        <ele>1525</ele>
        <time>2021-02-06T11:44:36Z</time>
      </trkpt>
      <trkpt lat="45.89643" lon="6.44132">
        <ele>1522</ele>
        <time>2021-02-06T11:44:37Z</time>
      </trkpt>
      <trkpt lat="45.89643" lon="6.44123">
        <ele>1523</ele>
        <time>2021-02-06T11:44:38Z</time>
      </trkpt>
      <trkpt lat="45.89637" lon="6.44107">
        <ele>1519</ele>
        <time>2021-02-06T11:44:40Z</time>
      </trkpt>
      <trkpt lat="45.89633" lon="6.44097">
        <ele>1519</ele>
        <time>2021-02-06T11:44:41Z</time>
      </trkpt>
      <trkpt lat="45.89629" lon="6.44093">
        <ele>1519</ele>
        <time>2021-02-06T11:44:42Z</time>
      </trkpt>
      <trkpt lat="45.89624" lon="6.44092">
        <ele>1519</ele>
        <time>2021-02-06T11:44:43Z</time>
      </trkpt>
      <trkpt lat="45.89616" lon="6.44091">
        <ele>1518</ele>
        <time>2021-02-06T11:44:45Z</time>
      </trkpt>
      <trkpt lat="45.89611" lon="6.4409">
        <ele>1517</ele>
        <time>2021-02-06T11:44:47Z</time>
      </trkpt>
      <trkpt lat="45.89604" lon="6.44089">
        <ele>1518</ele>
        <time>2021-02-06T11:44:53Z</time>
      </trkpt>
      <trkpt lat="45.896" lon="6.4409">
        <ele>1517</ele>
        <time>2021-02-06T11:44:55Z</time>
      </trkpt>
      <trkpt lat="45.89593" lon="6.44095">
        <ele>1517</ele>
        <time>2021-02-06T11:44:59Z</time>
      </trkpt>
      <trkpt lat="45.89588" lon="6.44097">
        <ele>1517</ele>
        <time>2021-02-06T11:45:23Z</time>
      </trkpt>
      <trkpt lat="45.89584" lon="6.44097">
        <ele>1517</ele>
        <time>2021-02-06T11:45:26Z</time>
      </trkpt>
      <trkpt lat="45.89579" lon="6.44102">
        <ele>1516</ele>
        <time>2021-02-06T11:47:43Z</time>
      </trkpt>
      <trkpt lat="45.89568" lon="6.44102">
        <ele>1517</ele>
        <time>2021-02-06T11:47:58Z</time>
      </trkpt>
      <trkpt lat="45.8956" lon="6.44104">
        <ele>1516</ele>
        <time>2021-02-06T11:48:01Z</time>
      </trkpt>
      <trkpt lat="45.89555" lon="6.44103">
        <ele>1516</ele>
        <time>2021-02-06T11:48:05Z</time>
      </trkpt>
      <trkpt lat="45.89545" lon="6.44105">
        <ele>1516</ele>
        <time>2021-02-06T11:48:10Z</time>
      </trkpt>
      <trkpt lat="45.89535" lon="6.44103">
        <ele>1515</ele>
        <time>2021-02-06T11:48:19Z</time>
      </trkpt>
    </trkseg>
  </trk>
</gpx>